<?xml version="1.0" encoding="UTF-8" standalone="no" ?>
<gpx xmlns="http://www.topografix.com/GPX/1/1" xmlns:xsi="http://www.w3.org/2001/XMLSchema-instance" xsi:schemaLocation="http://www.topografix.com/GPX/1/1 http://www.topografix.com/GPX/1/1/gpx.xsd" version="1.1" creator="VisuGPX - https://www.visugpx.com">
  <metadata>
    <name>Breitenbike 2011</name>
    <desc><![CDATA[<h1>OruxMaps</h1><br /><h2>Nom: 2011-07-03 09:02</h2><br /><p>Temps de départ: 07/03/2011 09:02</p><p>Temps d'arrivée: 07/03/2011 13:23</p><p>Distance: 49,9 km (05:21)</p><p>Temps déplacement: 04:09</p><p>Vitesse moyenne: 9,3 km/h</p><p>Vitesse moyenne12 km/h</p><p>Vitess Max.: 55 km/h</p><p>Altitude maximale: 430 m</p><p>Altitude minimale: 1210 m</p><p>Vitesse d'élévation: 460,8 m/h</p><p>Vitesse de descente: -1057 m/h</p><p>Gain Altitude: 1505 m</p><p>Perte Altitude: -1556 m</p><p>Temps d'élévation: 03:16</p><p>Temps de descente: 01:28</p>]]></desc>
  </metadata>
  <trk>
    <name><![CDATA[Breitenbike 2011 - 46 km - 6126 - UtagawaVTT.com]]></name>
    <desc><![CDATA[<h1>OruxMaps</h1><br /><h2>Nom: 2011-07-03 09:02</h2><br /><p>Temps de départ: 07/03/2011 09:02</p><p>Temps d'arrivée: 07/03/2011 13:23</p><p>Distance: 49,9 km (05:21)</p><p>Temps déplacement: 04:09</p><p>Vitesse moyenne: 9,3 km/h</p><p>Vitesse moyenne12 km/h</p><p>Vitess Max.: 55 km/h</p><p>Altitude maximale: 430 m</p><p>Altitude minimale: 1210 m</p><p>Vitesse d'élévation: 460,8 m/h</p><p>Vitesse de descente: -1057 m/h</p><p>Gain Altitude: 1505 m</p><p>Perte Altitude: -1556 m</p><p>Temps d'élévation: 03:16</p><p>Temps de descente: 01:28</p>]]></desc>
    <trkseg>
      <trkpt lat="48.02476" lon="7.10061">
        <ele>428.6</ele>
        <time>2011-07-03T06:02:20Z</time>
      </trkpt>
      <trkpt lat="48.0249" lon="7.10044">
        <ele>429</ele>
        <time>2011-07-03T06:02:30Z</time>
      </trkpt>
      <trkpt lat="48.02453" lon="7.10025">
        <ele>429.7</ele>
        <time>2011-07-03T06:05:04Z</time>
      </trkpt>
      <trkpt lat="48.02433" lon="7.10029">
        <ele>430</ele>
        <time>2011-07-03T06:05:14Z</time>
      </trkpt>
      <trkpt lat="48.02397" lon="7.1004">
        <ele>430.5</ele>
        <time>2011-07-03T06:05:36Z</time>
      </trkpt>
      <trkpt lat="48.02386" lon="7.10099">
        <ele>430</ele>
        <time>2011-07-03T06:05:52Z</time>
      </trkpt>
      <trkpt lat="48.02369" lon="7.10139">
        <ele>431.5</ele>
        <time>2011-07-03T06:23:17Z</time>
      </trkpt>
      <trkpt lat="48.0239" lon="7.10141">
        <ele>429.9</ele>
        <time>2011-07-03T06:23:35Z</time>
      </trkpt>
      <trkpt lat="48.02376" lon="7.10186">
        <ele>432.1</ele>
        <time>2011-07-03T06:24:01Z</time>
      </trkpt>
      <trkpt lat="48.02379" lon="7.10213">
        <ele>432.9</ele>
        <time>2011-07-03T06:24:07Z</time>
      </trkpt>
      <trkpt lat="48.02389" lon="7.10277">
        <ele>433.6</ele>
        <time>2011-07-03T06:24:21Z</time>
      </trkpt>
      <trkpt lat="48.02429" lon="7.10309">
        <ele>430.6</ele>
        <time>2011-07-03T06:24:31Z</time>
      </trkpt>
      <trkpt lat="48.02454" lon="7.10332">
        <ele>428.4</ele>
        <time>2011-07-03T06:24:35Z</time>
      </trkpt>
      <trkpt lat="48.02488" lon="7.10397">
        <ele>426.8</ele>
        <time>2011-07-03T06:24:43Z</time>
      </trkpt>
      <trkpt lat="48.025" lon="7.10481">
        <ele>426.5</ele>
        <time>2011-07-03T06:24:51Z</time>
      </trkpt>
      <trkpt lat="48.02538" lon="7.10636">
        <ele>423.3</ele>
        <time>2011-07-03T06:25:07Z</time>
      </trkpt>
      <trkpt lat="48.02555" lon="7.10708">
        <ele>420.4</ele>
        <time>2011-07-03T06:25:15Z</time>
      </trkpt>
      <trkpt lat="48.0257" lon="7.1078">
        <ele>420.5</ele>
        <time>2011-07-03T06:25:23Z</time>
      </trkpt>
      <trkpt lat="48.02592" lon="7.10838">
        <ele>422.1</ele>
        <time>2011-07-03T06:25:35Z</time>
      </trkpt>
      <trkpt lat="48.02597" lon="7.10873">
        <ele>423.9</ele>
        <time>2011-07-03T06:25:43Z</time>
      </trkpt>
      <trkpt lat="48.02612" lon="7.10936">
        <ele>424.2</ele>
        <time>2011-07-03T06:26:04Z</time>
      </trkpt>
      <trkpt lat="48.02623" lon="7.10994">
        <ele>424.6</ele>
        <time>2011-07-03T06:26:26Z</time>
      </trkpt>
      <trkpt lat="48.02642" lon="7.11021">
        <ele>424</ele>
        <time>2011-07-03T06:26:38Z</time>
      </trkpt>
      <trkpt lat="48.02659" lon="7.11138">
        <ele>431.7</ele>
        <time>2011-07-03T06:27:23Z</time>
      </trkpt>
      <trkpt lat="48.02687" lon="7.11257">
        <ele>433.9</ele>
        <time>2011-07-03T06:28:02Z</time>
      </trkpt>
      <trkpt lat="48.02696" lon="7.11285">
        <ele>432.9</ele>
        <time>2011-07-03T06:28:11Z</time>
      </trkpt>
      <trkpt lat="48.0271" lon="7.11338">
        <ele>437.7</ele>
        <time>2011-07-03T06:28:31Z</time>
      </trkpt>
      <trkpt lat="48.02719" lon="7.11395">
        <ele>445.2</ele>
        <time>2011-07-03T06:28:53Z</time>
      </trkpt>
      <trkpt lat="48.02718" lon="7.11451">
        <ele>451.6</ele>
        <time>2011-07-03T06:29:15Z</time>
      </trkpt>
      <trkpt lat="48.02731" lon="7.11508">
        <ele>453</ele>
        <time>2011-07-03T06:29:35Z</time>
      </trkpt>
      <trkpt lat="48.02741" lon="7.1159">
        <ele>459.9</ele>
        <time>2011-07-03T06:30:04Z</time>
      </trkpt>
      <trkpt lat="48.02752" lon="7.1165">
        <ele>464.3</ele>
        <time>2011-07-03T06:30:25Z</time>
      </trkpt>
      <trkpt lat="48.02723" lon="7.11625">
        <ele>471.3</ele>
        <time>2011-07-03T06:30:48Z</time>
      </trkpt>
      <trkpt lat="48.02702" lon="7.1158">
        <ele>473.5</ele>
        <time>2011-07-03T06:31:11Z</time>
      </trkpt>
      <trkpt lat="48.02684" lon="7.11533">
        <ele>475.3</ele>
        <time>2011-07-03T06:31:27Z</time>
      </trkpt>
      <trkpt lat="48.0265" lon="7.11468">
        <ele>483.6</ele>
        <time>2011-07-03T06:31:43Z</time>
      </trkpt>
      <trkpt lat="48.0264" lon="7.11444">
        <ele>485.6</ele>
        <time>2011-07-03T06:31:49Z</time>
      </trkpt>
      <trkpt lat="48.02627" lon="7.11388">
        <ele>485.5</ele>
        <time>2011-07-03T06:31:59Z</time>
      </trkpt>
      <trkpt lat="48.02616" lon="7.11363">
        <ele>487.1</ele>
        <time>2011-07-03T06:32:06Z</time>
      </trkpt>
      <trkpt lat="48.02608" lon="7.11282">
        <ele>478.8</ele>
        <time>2011-07-03T06:32:17Z</time>
      </trkpt>
      <trkpt lat="48.02588" lon="7.11229">
        <ele>479.3</ele>
        <time>2011-07-03T06:32:27Z</time>
      </trkpt>
      <trkpt lat="48.02566" lon="7.11179">
        <ele>483</ele>
        <time>2011-07-03T06:32:40Z</time>
      </trkpt>
      <trkpt lat="48.02528" lon="7.11098">
        <ele>490.3</ele>
        <time>2011-07-03T06:33:04Z</time>
      </trkpt>
      <trkpt lat="48.02503" lon="7.11054">
        <ele>493.4</ele>
        <time>2011-07-03T06:33:24Z</time>
      </trkpt>
      <trkpt lat="48.02489" lon="7.11002">
        <ele>486.3</ele>
        <time>2011-07-03T06:33:41Z</time>
      </trkpt>
      <trkpt lat="48.02479" lon="7.10972">
        <ele>483.9</ele>
        <time>2011-07-03T06:33:51Z</time>
      </trkpt>
      <trkpt lat="48.02448" lon="7.10941">
        <ele>489.9</ele>
        <time>2011-07-03T06:34:09Z</time>
      </trkpt>
      <trkpt lat="48.02428" lon="7.10925">
        <ele>493.1</ele>
        <time>2011-07-03T06:34:19Z</time>
      </trkpt>
      <trkpt lat="48.02391" lon="7.10891">
        <ele>497.9</ele>
        <time>2011-07-03T06:34:43Z</time>
      </trkpt>
      <trkpt lat="48.02372" lon="7.10879">
        <ele>501.8</ele>
        <time>2011-07-03T06:34:52Z</time>
      </trkpt>
      <trkpt lat="48.02345" lon="7.10839">
        <ele>500.1</ele>
        <time>2011-07-03T06:35:13Z</time>
      </trkpt>
      <trkpt lat="48.0232" lon="7.10834">
        <ele>506.2</ele>
        <time>2011-07-03T06:35:21Z</time>
      </trkpt>
      <trkpt lat="48.02278" lon="7.10801">
        <ele>511.3</ele>
        <time>2011-07-03T06:35:40Z</time>
      </trkpt>
      <trkpt lat="48.02244" lon="7.1076">
        <ele>512.2</ele>
        <time>2011-07-03T06:36:00Z</time>
      </trkpt>
      <trkpt lat="48.02239" lon="7.10786">
        <ele>518.6</ele>
        <time>2011-07-03T06:36:14Z</time>
      </trkpt>
      <trkpt lat="48.02269" lon="7.10836">
        <ele>520.7</ele>
        <time>2011-07-03T06:36:35Z</time>
      </trkpt>
      <trkpt lat="48.02296" lon="7.10876">
        <ele>522.2</ele>
        <time>2011-07-03T06:36:57Z</time>
      </trkpt>
      <trkpt lat="48.0233" lon="7.10922">
        <ele>523.9</ele>
        <time>2011-07-03T06:37:21Z</time>
      </trkpt>
      <trkpt lat="48.02338" lon="7.10947">
        <ele>528</ele>
        <time>2011-07-03T06:37:33Z</time>
      </trkpt>
      <trkpt lat="48.02369" lon="7.10989">
        <ele>530.5</ele>
        <time>2011-07-03T06:37:53Z</time>
      </trkpt>
      <trkpt lat="48.0239" lon="7.11047">
        <ele>537.6</ele>
        <time>2011-07-03T06:38:19Z</time>
      </trkpt>
      <trkpt lat="48.02401" lon="7.11109">
        <ele>548.5</ele>
        <time>2011-07-03T06:38:40Z</time>
      </trkpt>
      <trkpt lat="48.02405" lon="7.11171">
        <ele>557.5</ele>
        <time>2011-07-03T06:39:00Z</time>
      </trkpt>
      <trkpt lat="48.02404" lon="7.11241">
        <ele>565.5</ele>
        <time>2011-07-03T06:39:20Z</time>
      </trkpt>
      <trkpt lat="48.02416" lon="7.11309">
        <ele>566.1</ele>
        <time>2011-07-03T06:39:30Z</time>
      </trkpt>
      <trkpt lat="48.02433" lon="7.11347">
        <ele>563.8</ele>
        <time>2011-07-03T06:39:35Z</time>
      </trkpt>
      <trkpt lat="48.02458" lon="7.11393">
        <ele>560.5</ele>
        <time>2011-07-03T06:39:39Z</time>
      </trkpt>
      <trkpt lat="48.02471" lon="7.11455">
        <ele>557</ele>
        <time>2011-07-03T06:39:52Z</time>
      </trkpt>
      <trkpt lat="48.02478" lon="7.11514">
        <ele>558.9</ele>
        <time>2011-07-03T06:40:09Z</time>
      </trkpt>
      <trkpt lat="48.02492" lon="7.11542">
        <ele>555.8</ele>
        <time>2011-07-03T06:40:17Z</time>
      </trkpt>
      <trkpt lat="48.02505" lon="7.11594">
        <ele>558.8</ele>
        <time>2011-07-03T06:40:36Z</time>
      </trkpt>
      <trkpt lat="48.02507" lon="7.11655">
        <ele>566.9</ele>
        <time>2011-07-03T06:40:56Z</time>
      </trkpt>
      <trkpt lat="48.02506" lon="7.11716">
        <ele>576.4</ele>
        <time>2011-07-03T06:41:16Z</time>
      </trkpt>
      <trkpt lat="48.02502" lon="7.11773">
        <ele>582.1</ele>
        <time>2011-07-03T06:41:33Z</time>
      </trkpt>
      <trkpt lat="48.02473" lon="7.11811">
        <ele>593.6</ele>
        <time>2011-07-03T06:41:50Z</time>
      </trkpt>
      <trkpt lat="48.02474" lon="7.11751">
        <ele>590.8</ele>
        <time>2011-07-03T06:42:11Z</time>
      </trkpt>
      <trkpt lat="48.02466" lon="7.11693">
        <ele>588.7</ele>
        <time>2011-07-03T06:42:29Z</time>
      </trkpt>
      <trkpt lat="48.02422" lon="7.11584">
        <ele>586.8</ele>
        <time>2011-07-03T06:43:03Z</time>
      </trkpt>
      <trkpt lat="48.02408" lon="7.11552">
        <ele>585.8</ele>
        <time>2011-07-03T06:43:13Z</time>
      </trkpt>
      <trkpt lat="48.02381" lon="7.11511">
        <ele>586.9</ele>
        <time>2011-07-03T06:43:29Z</time>
      </trkpt>
      <trkpt lat="48.02349" lon="7.11469">
        <ele>593</ele>
        <time>2011-07-03T06:43:52Z</time>
      </trkpt>
      <trkpt lat="48.02322" lon="7.11419">
        <ele>600.8</ele>
        <time>2011-07-03T06:44:12Z</time>
      </trkpt>
      <trkpt lat="48.02305" lon="7.11371">
        <ele>603.1</ele>
        <time>2011-07-03T06:44:28Z</time>
      </trkpt>
      <trkpt lat="48.023" lon="7.11344">
        <ele>602.8</ele>
        <time>2011-07-03T06:44:36Z</time>
      </trkpt>
      <trkpt lat="48.0232" lon="7.114">
        <ele>600.1</ele>
        <time>2011-07-03T06:44:48Z</time>
      </trkpt>
      <trkpt lat="48.02343" lon="7.11457">
        <ele>594.1</ele>
        <time>2011-07-03T06:44:56Z</time>
      </trkpt>
      <trkpt lat="48.02376" lon="7.11523">
        <ele>590.3</ele>
        <time>2011-07-03T06:45:05Z</time>
      </trkpt>
      <trkpt lat="48.02388" lon="7.11555">
        <ele>592.5</ele>
        <time>2011-07-03T06:45:09Z</time>
      </trkpt>
      <trkpt lat="48.02409" lon="7.1163">
        <ele>598.8</ele>
        <time>2011-07-03T06:45:17Z</time>
      </trkpt>
      <trkpt lat="48.02404" lon="7.1167">
        <ele>604.8</ele>
        <time>2011-07-03T06:45:21Z</time>
      </trkpt>
      <trkpt lat="48.02369" lon="7.11703">
        <ele>618.1</ele>
        <time>2011-07-03T06:45:26Z</time>
      </trkpt>
      <trkpt lat="48.02301" lon="7.11717">
        <ele>635.3</ele>
        <time>2011-07-03T06:45:34Z</time>
      </trkpt>
      <trkpt lat="48.02209" lon="7.1174">
        <ele>648.2</ele>
        <time>2011-07-03T06:45:55Z</time>
      </trkpt>
      <trkpt lat="48.02169" lon="7.11754">
        <ele>654.3</ele>
        <time>2011-07-03T06:46:08Z</time>
      </trkpt>
      <trkpt lat="48.02128" lon="7.11761">
        <ele>661.3</ele>
        <time>2011-07-03T06:46:26Z</time>
      </trkpt>
      <trkpt lat="48.02092" lon="7.1178">
        <ele>667</ele>
        <time>2011-07-03T06:46:41Z</time>
      </trkpt>
      <trkpt lat="48.02073" lon="7.118">
        <ele>667</ele>
        <time>2011-07-03T06:46:51Z</time>
      </trkpt>
      <trkpt lat="48.02056" lon="7.11851">
        <ele>654.7</ele>
        <time>2011-07-03T06:47:06Z</time>
      </trkpt>
      <trkpt lat="48.02047" lon="7.11909">
        <ele>639.9</ele>
        <time>2011-07-03T06:47:20Z</time>
      </trkpt>
      <trkpt lat="48.02035" lon="7.11965">
        <ele>629.9</ele>
        <time>2011-07-03T06:47:38Z</time>
      </trkpt>
      <trkpt lat="48.02045" lon="7.12028">
        <ele>622.2</ele>
        <time>2011-07-03T06:47:57Z</time>
      </trkpt>
      <trkpt lat="48.02061" lon="7.12085">
        <ele>617.8</ele>
        <time>2011-07-03T06:48:17Z</time>
      </trkpt>
      <trkpt lat="48.02065" lon="7.12117">
        <ele>617</ele>
        <time>2011-07-03T06:48:27Z</time>
      </trkpt>
      <trkpt lat="48.02078" lon="7.12166">
        <ele>617.4</ele>
        <time>2011-07-03T06:48:47Z</time>
      </trkpt>
      <trkpt lat="48.02082" lon="7.12228">
        <ele>623.3</ele>
        <time>2011-07-03T06:49:08Z</time>
      </trkpt>
      <trkpt lat="48.02054" lon="7.12336">
        <ele>654.6</ele>
        <time>2011-07-03T06:50:12Z</time>
      </trkpt>
      <trkpt lat="48.02048" lon="7.12368">
        <ele>662.8</ele>
        <time>2011-07-03T06:50:22Z</time>
      </trkpt>
      <trkpt lat="48.02" lon="7.12399">
        <ele>679.8</ele>
        <time>2011-07-03T06:50:35Z</time>
      </trkpt>
      <trkpt lat="48.01945" lon="7.12418">
        <ele>693.5</ele>
        <time>2011-07-03T06:50:49Z</time>
      </trkpt>
      <trkpt lat="48.01905" lon="7.12424">
        <ele>700.8</ele>
        <time>2011-07-03T06:51:00Z</time>
      </trkpt>
      <trkpt lat="48.01884" lon="7.12429">
        <ele>704.3</ele>
        <time>2011-07-03T06:51:04Z</time>
      </trkpt>
      <trkpt lat="48.01837" lon="7.12429">
        <ele>709</ele>
        <time>2011-07-03T06:51:23Z</time>
      </trkpt>
      <trkpt lat="48.01795" lon="7.12424">
        <ele>713</ele>
        <time>2011-07-03T06:51:36Z</time>
      </trkpt>
      <trkpt lat="48.01754" lon="7.12442">
        <ele>712.6</ele>
        <time>2011-07-03T06:51:52Z</time>
      </trkpt>
      <trkpt lat="48.01716" lon="7.12442">
        <ele>714.8</ele>
        <time>2011-07-03T06:52:11Z</time>
      </trkpt>
      <trkpt lat="48.01635" lon="7.12425">
        <ele>724.8</ele>
        <time>2011-07-03T06:52:51Z</time>
      </trkpt>
      <trkpt lat="48.01609" lon="7.12425">
        <ele>724.4</ele>
        <time>2011-07-03T06:52:55Z</time>
      </trkpt>
      <trkpt lat="48.0152" lon="7.12396">
        <ele>723.6</ele>
        <time>2011-07-03T06:53:12Z</time>
      </trkpt>
      <trkpt lat="48.01492" lon="7.12357">
        <ele>729.9</ele>
        <time>2011-07-03T06:53:35Z</time>
      </trkpt>
      <trkpt lat="48.01468" lon="7.1231">
        <ele>740.8</ele>
        <time>2011-07-03T06:53:58Z</time>
      </trkpt>
      <trkpt lat="48.01466" lon="7.12284">
        <ele>748.6</ele>
        <time>2011-07-03T06:54:33Z</time>
      </trkpt>
      <trkpt lat="48.01504" lon="7.1229">
        <ele>748.3</ele>
        <time>2011-07-03T06:54:51Z</time>
      </trkpt>
      <trkpt lat="48.0156" lon="7.12336">
        <ele>740.9</ele>
        <time>2011-07-03T06:55:17Z</time>
      </trkpt>
      <trkpt lat="48.01594" lon="7.12362">
        <ele>736.7</ele>
        <time>2011-07-03T06:55:33Z</time>
      </trkpt>
      <trkpt lat="48.01642" lon="7.12372">
        <ele>734.9</ele>
        <time>2011-07-03T06:55:49Z</time>
      </trkpt>
      <trkpt lat="48.0168" lon="7.12367">
        <ele>734.2</ele>
        <time>2011-07-03T06:56:01Z</time>
      </trkpt>
      <trkpt lat="48.01717" lon="7.1235">
        <ele>734</ele>
        <time>2011-07-03T06:56:15Z</time>
      </trkpt>
      <trkpt lat="48.01747" lon="7.12314">
        <ele>732.9</ele>
        <time>2011-07-03T06:56:29Z</time>
      </trkpt>
      <trkpt lat="48.01785" lon="7.12295">
        <ele>727.2</ele>
        <time>2011-07-03T06:56:46Z</time>
      </trkpt>
      <trkpt lat="48.01827" lon="7.12279">
        <ele>716.2</ele>
        <time>2011-07-03T06:57:03Z</time>
      </trkpt>
      <trkpt lat="48.01852" lon="7.12274">
        <ele>708.8</ele>
        <time>2011-07-03T06:57:12Z</time>
      </trkpt>
      <trkpt lat="48.01809" lon="7.12268">
        <ele>721</ele>
        <time>2011-07-03T06:57:54Z</time>
      </trkpt>
      <trkpt lat="48.01767" lon="7.12258">
        <ele>732.4</ele>
        <time>2011-07-03T06:58:08Z</time>
      </trkpt>
      <trkpt lat="48.01677" lon="7.12261">
        <ele>750.7</ele>
        <time>2011-07-03T06:58:36Z</time>
      </trkpt>
      <trkpt lat="48.01637" lon="7.12269">
        <ele>754.3</ele>
        <time>2011-07-03T06:58:51Z</time>
      </trkpt>
      <trkpt lat="48.01596" lon="7.12257">
        <ele>758.9</ele>
        <time>2011-07-03T06:59:05Z</time>
      </trkpt>
      <trkpt lat="48.01577" lon="7.12246">
        <ele>761.8</ele>
        <time>2011-07-03T06:59:11Z</time>
      </trkpt>
      <trkpt lat="48.01535" lon="7.12232">
        <ele>766.1</ele>
        <time>2011-07-03T06:59:25Z</time>
      </trkpt>
      <trkpt lat="48.01517" lon="7.12219">
        <ele>769</ele>
        <time>2011-07-03T06:59:31Z</time>
      </trkpt>
      <trkpt lat="48.0148" lon="7.12191">
        <ele>774.5</ele>
        <time>2011-07-03T06:59:43Z</time>
      </trkpt>
      <trkpt lat="48.01443" lon="7.1217">
        <ele>777.9</ele>
        <time>2011-07-03T06:59:57Z</time>
      </trkpt>
      <trkpt lat="48.01403" lon="7.12171">
        <ele>776.4</ele>
        <time>2011-07-03T07:00:15Z</time>
      </trkpt>
      <trkpt lat="48.01358" lon="7.12178">
        <ele>773.5</ele>
        <time>2011-07-03T07:00:31Z</time>
      </trkpt>
      <trkpt lat="48.01314" lon="7.12196">
        <ele>770.4</ele>
        <time>2011-07-03T07:00:47Z</time>
      </trkpt>
      <trkpt lat="48.0127" lon="7.12191">
        <ele>765.7</ele>
        <time>2011-07-03T07:01:07Z</time>
      </trkpt>
      <trkpt lat="48.01226" lon="7.12183">
        <ele>758.2</ele>
        <time>2011-07-03T07:01:19Z</time>
      </trkpt>
      <trkpt lat="48.01191" lon="7.12212">
        <ele>753.9</ele>
        <time>2011-07-03T07:01:31Z</time>
      </trkpt>
      <trkpt lat="48.01162" lon="7.12263">
        <ele>749.3</ele>
        <time>2011-07-03T07:01:43Z</time>
      </trkpt>
      <trkpt lat="48.01152" lon="7.12294">
        <ele>746.9</ele>
        <time>2011-07-03T07:01:49Z</time>
      </trkpt>
      <trkpt lat="48.01148" lon="7.12369">
        <ele>740.2</ele>
        <time>2011-07-03T07:01:59Z</time>
      </trkpt>
      <trkpt lat="48.01128" lon="7.12484">
        <ele>732.3</ele>
        <time>2011-07-03T07:02:09Z</time>
      </trkpt>
      <trkpt lat="48.01111" lon="7.12557">
        <ele>730.3</ele>
        <time>2011-07-03T07:02:15Z</time>
      </trkpt>
      <trkpt lat="48.01081" lon="7.12617">
        <ele>729</ele>
        <time>2011-07-03T07:02:23Z</time>
      </trkpt>
      <trkpt lat="48.01095" lon="7.12668">
        <ele>719</ele>
        <time>2011-07-03T07:02:35Z</time>
      </trkpt>
      <trkpt lat="48.01152" lon="7.12682">
        <ele>709</ele>
        <time>2011-07-03T07:02:59Z</time>
      </trkpt>
      <trkpt lat="48.01173" lon="7.12684">
        <ele>707.5</ele>
        <time>2011-07-03T07:03:05Z</time>
      </trkpt>
      <trkpt lat="48.01213" lon="7.12667">
        <ele>700.5</ele>
        <time>2011-07-03T07:03:29Z</time>
      </trkpt>
      <trkpt lat="48.01251" lon="7.12671">
        <ele>697</ele>
        <time>2011-07-03T07:03:51Z</time>
      </trkpt>
      <trkpt lat="48.01286" lon="7.12694">
        <ele>701</ele>
        <time>2011-07-03T07:04:13Z</time>
      </trkpt>
      <trkpt lat="48.01303" lon="7.12713">
        <ele>704.4</ele>
        <time>2011-07-03T07:04:23Z</time>
      </trkpt>
      <trkpt lat="48.01328" lon="7.12763">
        <ele>713.2</ele>
        <time>2011-07-03T07:04:47Z</time>
      </trkpt>
      <trkpt lat="48.01355" lon="7.12808">
        <ele>720</ele>
        <time>2011-07-03T07:05:09Z</time>
      </trkpt>
      <trkpt lat="48.01371" lon="7.12859">
        <ele>728.1</ele>
        <time>2011-07-03T07:05:31Z</time>
      </trkpt>
      <trkpt lat="48.01373" lon="7.12975">
        <ele>744.9</ele>
        <time>2011-07-03T07:06:15Z</time>
      </trkpt>
      <trkpt lat="48.01368" lon="7.13002">
        <ele>748.4</ele>
        <time>2011-07-03T07:06:27Z</time>
      </trkpt>
      <trkpt lat="48.01365" lon="7.13063">
        <ele>753.9</ele>
        <time>2011-07-03T07:06:49Z</time>
      </trkpt>
      <trkpt lat="48.01367" lon="7.13119">
        <ele>757.8</ele>
        <time>2011-07-03T07:07:09Z</time>
      </trkpt>
      <trkpt lat="48.01393" lon="7.13162">
        <ele>758.2</ele>
        <time>2011-07-03T07:07:35Z</time>
      </trkpt>
      <trkpt lat="48.01431" lon="7.13166">
        <ele>755.5</ele>
        <time>2011-07-03T07:07:53Z</time>
      </trkpt>
      <trkpt lat="48.01454" lon="7.13175">
        <ele>755.1</ele>
        <time>2011-07-03T07:08:03Z</time>
      </trkpt>
      <trkpt lat="48.01533" lon="7.1319">
        <ele>762.4</ele>
        <time>2011-07-03T07:08:53Z</time>
      </trkpt>
      <trkpt lat="48.0158" lon="7.13184">
        <ele>759.2</ele>
        <time>2011-07-03T07:09:09Z</time>
      </trkpt>
      <trkpt lat="48.01627" lon="7.1317">
        <ele>751.8</ele>
        <time>2011-07-03T07:09:19Z</time>
      </trkpt>
      <trkpt lat="48.01666" lon="7.13178">
        <ele>750.1</ele>
        <time>2011-07-03T07:09:29Z</time>
      </trkpt>
      <trkpt lat="48.01683" lon="7.1319">
        <ele>752.5</ele>
        <time>2011-07-03T07:09:41Z</time>
      </trkpt>
      <trkpt lat="48.01719" lon="7.13221">
        <ele>757.6</ele>
        <time>2011-07-03T07:09:57Z</time>
      </trkpt>
      <trkpt lat="48.0174" lon="7.13233">
        <ele>757.5</ele>
        <time>2011-07-03T07:10:05Z</time>
      </trkpt>
      <trkpt lat="48.01769" lon="7.13275">
        <ele>763.3</ele>
        <time>2011-07-03T07:10:21Z</time>
      </trkpt>
      <trkpt lat="48.01809" lon="7.13308">
        <ele>766.8</ele>
        <time>2011-07-03T07:10:35Z</time>
      </trkpt>
      <trkpt lat="48.01829" lon="7.1332">
        <ele>768.5</ele>
        <time>2011-07-03T07:10:41Z</time>
      </trkpt>
      <trkpt lat="48.01874" lon="7.1333">
        <ele>768.3</ele>
        <time>2011-07-03T07:10:53Z</time>
      </trkpt>
      <trkpt lat="48.01954" lon="7.13323">
        <ele>759.2</ele>
        <time>2011-07-03T07:11:16Z</time>
      </trkpt>
      <trkpt lat="48.01999" lon="7.13337">
        <ele>761.1</ele>
        <time>2011-07-03T07:11:24Z</time>
      </trkpt>
      <trkpt lat="48.02021" lon="7.13354">
        <ele>764.5</ele>
        <time>2011-07-03T07:11:28Z</time>
      </trkpt>
      <trkpt lat="48.02067" lon="7.13373">
        <ele>768.2</ele>
        <time>2011-07-03T07:11:36Z</time>
      </trkpt>
      <trkpt lat="48.02094" lon="7.13391">
        <ele>771</ele>
        <time>2011-07-03T07:11:40Z</time>
      </trkpt>
      <trkpt lat="48.02136" lon="7.13443">
        <ele>777.9</ele>
        <time>2011-07-03T07:11:44Z</time>
      </trkpt>
      <trkpt lat="48.02176" lon="7.13475">
        <ele>778.8</ele>
        <time>2011-07-03T07:11:55Z</time>
      </trkpt>
      <trkpt lat="48.02188" lon="7.13499">
        <ele>779.5</ele>
        <time>2011-07-03T07:14:46Z</time>
      </trkpt>
      <trkpt lat="48.02173" lon="7.13536">
        <ele>782.4</ele>
        <time>2011-07-03T07:14:51Z</time>
      </trkpt>
      <trkpt lat="48.02176" lon="7.13608">
        <ele>770.9</ele>
        <time>2011-07-03T07:15:01Z</time>
      </trkpt>
      <trkpt lat="48.02174" lon="7.1374">
        <ele>751.4</ele>
        <time>2011-07-03T07:15:22Z</time>
      </trkpt>
      <trkpt lat="48.02207" lon="7.13774">
        <ele>742.2</ele>
        <time>2011-07-03T07:15:39Z</time>
      </trkpt>
      <trkpt lat="48.02187" lon="7.138">
        <ele>744</ele>
        <time>2011-07-03T07:15:43Z</time>
      </trkpt>
      <trkpt lat="48.02148" lon="7.1379">
        <ele>752.7</ele>
        <time>2011-07-03T07:15:47Z</time>
      </trkpt>
      <trkpt lat="48.02105" lon="7.13768">
        <ele>762.9</ele>
        <time>2011-07-03T07:15:51Z</time>
      </trkpt>
      <trkpt lat="48.02086" lon="7.13757">
        <ele>767.9</ele>
        <time>2011-07-03T07:15:53Z</time>
      </trkpt>
      <trkpt lat="48.0204" lon="7.13772">
        <ele>773.5</ele>
        <time>2011-07-03T07:15:57Z</time>
      </trkpt>
      <trkpt lat="48.01997" lon="7.13755">
        <ele>780.6</ele>
        <time>2011-07-03T07:16:04Z</time>
      </trkpt>
      <trkpt lat="48.01964" lon="7.13747">
        <ele>785.8</ele>
        <time>2011-07-03T07:16:28Z</time>
      </trkpt>
      <trkpt lat="48.01926" lon="7.1371">
        <ele>792.6</ele>
        <time>2011-07-03T07:16:38Z</time>
      </trkpt>
      <trkpt lat="48.01887" lon="7.13683">
        <ele>792.7</ele>
        <time>2011-07-03T07:16:50Z</time>
      </trkpt>
      <trkpt lat="48.01866" lon="7.13691">
        <ele>791.4</ele>
        <time>2011-07-03T07:16:56Z</time>
      </trkpt>
      <trkpt lat="48.01832" lon="7.13722">
        <ele>790.4</ele>
        <time>2011-07-03T07:17:10Z</time>
      </trkpt>
      <trkpt lat="48.01764" lon="7.13771">
        <ele>792.3</ele>
        <time>2011-07-03T07:17:38Z</time>
      </trkpt>
      <trkpt lat="48.01665" lon="7.13815">
        <ele>796.5</ele>
        <time>2011-07-03T07:18:15Z</time>
      </trkpt>
      <trkpt lat="48.01625" lon="7.13824">
        <ele>794.8</ele>
        <time>2011-07-03T07:18:33Z</time>
      </trkpt>
      <trkpt lat="48.01586" lon="7.13829">
        <ele>794.4</ele>
        <time>2011-07-03T07:18:46Z</time>
      </trkpt>
      <trkpt lat="48.01553" lon="7.13865">
        <ele>786.6</ele>
        <time>2011-07-03T07:19:01Z</time>
      </trkpt>
      <trkpt lat="48.01527" lon="7.13913">
        <ele>776.6</ele>
        <time>2011-07-03T07:19:17Z</time>
      </trkpt>
      <trkpt lat="48.01508" lon="7.13971">
        <ele>768.4</ele>
        <time>2011-07-03T07:19:33Z</time>
      </trkpt>
      <trkpt lat="48.01473" lon="7.14006">
        <ele>773.8</ele>
        <time>2011-07-03T07:19:43Z</time>
      </trkpt>
      <trkpt lat="48.01427" lon="7.14005">
        <ele>786.3</ele>
        <time>2011-07-03T07:19:54Z</time>
      </trkpt>
      <trkpt lat="48.0138" lon="7.14011">
        <ele>799.7</ele>
        <time>2011-07-03T07:20:04Z</time>
      </trkpt>
      <trkpt lat="48.01337" lon="7.14033">
        <ele>812.4</ele>
        <time>2011-07-03T07:20:15Z</time>
      </trkpt>
      <trkpt lat="48.0129" lon="7.14023">
        <ele>828.6</ele>
        <time>2011-07-03T07:20:25Z</time>
      </trkpt>
      <trkpt lat="48.01266" lon="7.14009">
        <ele>830.7</ele>
        <time>2011-07-03T07:20:31Z</time>
      </trkpt>
      <trkpt lat="48.01229" lon="7.13975">
        <ele>838.6</ele>
        <time>2011-07-03T07:20:41Z</time>
      </trkpt>
      <trkpt lat="48.01207" lon="7.13965">
        <ele>842.7</ele>
        <time>2011-07-03T07:20:47Z</time>
      </trkpt>
      <trkpt lat="48.01167" lon="7.13955">
        <ele>850.6</ele>
        <time>2011-07-03T07:20:59Z</time>
      </trkpt>
      <trkpt lat="48.01129" lon="7.13956">
        <ele>856.5</ele>
        <time>2011-07-03T07:21:11Z</time>
      </trkpt>
      <trkpt lat="48.01104" lon="7.13959">
        <ele>858.1</ele>
        <time>2011-07-03T07:21:17Z</time>
      </trkpt>
      <trkpt lat="48.01059" lon="7.13976">
        <ele>855.1</ele>
        <time>2011-07-03T07:21:33Z</time>
      </trkpt>
      <trkpt lat="48.01019" lon="7.13981">
        <ele>856.3</ele>
        <time>2011-07-03T07:21:45Z</time>
      </trkpt>
      <trkpt lat="48.00998" lon="7.13987">
        <ele>856.1</ele>
        <time>2011-07-03T07:21:49Z</time>
      </trkpt>
      <trkpt lat="48.00957" lon="7.13996">
        <ele>856.7</ele>
        <time>2011-07-03T07:22:03Z</time>
      </trkpt>
      <trkpt lat="48.0091" lon="7.13986">
        <ele>859.9</ele>
        <time>2011-07-03T07:22:22Z</time>
      </trkpt>
      <trkpt lat="48.00887" lon="7.13989">
        <ele>859.1</ele>
        <time>2011-07-03T07:22:30Z</time>
      </trkpt>
      <trkpt lat="48.00855" lon="7.14017">
        <ele>853.7</ele>
        <time>2011-07-03T07:22:49Z</time>
      </trkpt>
      <trkpt lat="48.00829" lon="7.14063">
        <ele>843.2</ele>
        <time>2011-07-03T07:23:05Z</time>
      </trkpt>
      <trkpt lat="48.00813" lon="7.1409">
        <ele>838.1</ele>
        <time>2011-07-03T07:23:14Z</time>
      </trkpt>
      <trkpt lat="48.00803" lon="7.14151">
        <ele>824.4</ele>
        <time>2011-07-03T07:23:32Z</time>
      </trkpt>
      <trkpt lat="48.00796" lon="7.14178">
        <ele>820.4</ele>
        <time>2011-07-03T07:23:41Z</time>
      </trkpt>
      <trkpt lat="48.00792" lon="7.14235">
        <ele>810.8</ele>
        <time>2011-07-03T07:23:58Z</time>
      </trkpt>
      <trkpt lat="48.0081" lon="7.14291">
        <ele>795.7</ele>
        <time>2011-07-03T07:24:20Z</time>
      </trkpt>
      <trkpt lat="48.00851" lon="7.14349">
        <ele>787.8</ele>
        <time>2011-07-03T07:24:43Z</time>
      </trkpt>
      <trkpt lat="48.00859" lon="7.14413">
        <ele>796.1</ele>
        <time>2011-07-03T07:25:07Z</time>
      </trkpt>
      <trkpt lat="48.00871" lon="7.14465">
        <ele>802.3</ele>
        <time>2011-07-03T07:25:24Z</time>
      </trkpt>
      <trkpt lat="48.00855" lon="7.14519">
        <ele>817.4</ele>
        <time>2011-07-03T07:25:43Z</time>
      </trkpt>
      <trkpt lat="48.00852" lon="7.14549">
        <ele>823.5</ele>
        <time>2011-07-03T07:25:54Z</time>
      </trkpt>
      <trkpt lat="48.00841" lon="7.14607">
        <ele>833.8</ele>
        <time>2011-07-03T07:26:17Z</time>
      </trkpt>
      <trkpt lat="48.0083" lon="7.14637">
        <ele>841.3</ele>
        <time>2011-07-03T07:26:27Z</time>
      </trkpt>
      <trkpt lat="48.00821" lon="7.1469">
        <ele>847.4</ele>
        <time>2011-07-03T07:34:44Z</time>
      </trkpt>
      <trkpt lat="48.00821" lon="7.14724">
        <ele>848.8</ele>
        <time>2011-07-03T07:36:24Z</time>
      </trkpt>
      <trkpt lat="48.00823" lon="7.14779">
        <ele>851.6</ele>
        <time>2011-07-03T07:36:32Z</time>
      </trkpt>
      <trkpt lat="48.00829" lon="7.14821">
        <ele>854.4</ele>
        <time>2011-07-03T07:36:38Z</time>
      </trkpt>
      <trkpt lat="48.00833" lon="7.1489">
        <ele>860</ele>
        <time>2011-07-03T07:36:48Z</time>
      </trkpt>
      <trkpt lat="48.00794" lon="7.15037">
        <ele>856.3</ele>
        <time>2011-07-03T07:37:04Z</time>
      </trkpt>
      <trkpt lat="48.00804" lon="7.15078">
        <ele>856.5</ele>
        <time>2011-07-03T07:37:08Z</time>
      </trkpt>
      <trkpt lat="48.00839" lon="7.15148">
        <ele>853.6</ele>
        <time>2011-07-03T07:37:16Z</time>
      </trkpt>
      <trkpt lat="48.00894" lon="7.15271">
        <ele>834.5</ele>
        <time>2011-07-03T07:37:28Z</time>
      </trkpt>
      <trkpt lat="48.00892" lon="7.15279">
        <ele>834.7</ele>
        <time>2011-07-03T07:38:09Z</time>
      </trkpt>
      <trkpt lat="48.00871" lon="7.15263">
        <ele>842.6</ele>
        <time>2011-07-03T07:38:13Z</time>
      </trkpt>
      <trkpt lat="48.00841" lon="7.15225">
        <ele>847.5</ele>
        <time>2011-07-03T07:38:21Z</time>
      </trkpt>
      <trkpt lat="48.00825" lon="7.15198">
        <ele>850.7</ele>
        <time>2011-07-03T07:38:27Z</time>
      </trkpt>
      <trkpt lat="48.00805" lon="7.1515">
        <ele>854.9</ele>
        <time>2011-07-03T07:38:35Z</time>
      </trkpt>
      <trkpt lat="48.00777" lon="7.15109">
        <ele>851.9</ele>
        <time>2011-07-03T07:38:43Z</time>
      </trkpt>
      <trkpt lat="48.00744" lon="7.15055">
        <ele>838.6</ele>
        <time>2011-07-03T07:38:55Z</time>
      </trkpt>
      <trkpt lat="48.00721" lon="7.15003">
        <ele>829.9</ele>
        <time>2011-07-03T07:39:07Z</time>
      </trkpt>
      <trkpt lat="48.00719" lon="7.14927">
        <ele>832.6</ele>
        <time>2011-07-03T07:39:17Z</time>
      </trkpt>
      <trkpt lat="48.00726" lon="7.14869">
        <ele>841.1</ele>
        <time>2011-07-03T07:39:25Z</time>
      </trkpt>
      <trkpt lat="48.00724" lon="7.1483">
        <ele>847.2</ele>
        <time>2011-07-03T07:39:29Z</time>
      </trkpt>
      <trkpt lat="48.00709" lon="7.14778">
        <ele>856.6</ele>
        <time>2011-07-03T07:39:39Z</time>
      </trkpt>
      <trkpt lat="48.00665" lon="7.14774">
        <ele>852.3</ele>
        <time>2011-07-03T07:39:51Z</time>
      </trkpt>
      <trkpt lat="48.00614" lon="7.14746">
        <ele>853.9</ele>
        <time>2011-07-03T07:40:07Z</time>
      </trkpt>
      <trkpt lat="48.00568" lon="7.14757">
        <ele>838.1</ele>
        <time>2011-07-03T07:40:17Z</time>
      </trkpt>
      <trkpt lat="48.00549" lon="7.14764">
        <ele>830.7</ele>
        <time>2011-07-03T07:40:23Z</time>
      </trkpt>
      <trkpt lat="48.00496" lon="7.14777">
        <ele>810.6</ele>
        <time>2011-07-03T07:40:33Z</time>
      </trkpt>
      <trkpt lat="48.00486" lon="7.14743">
        <ele>815.5</ele>
        <time>2011-07-03T07:41:26Z</time>
      </trkpt>
      <trkpt lat="48.00462" lon="7.14689">
        <ele>815.5</ele>
        <time>2011-07-03T07:41:40Z</time>
      </trkpt>
      <trkpt lat="48.00447" lon="7.14639">
        <ele>812</ele>
        <time>2011-07-03T07:41:56Z</time>
      </trkpt>
      <trkpt lat="48.00442" lon="7.14609">
        <ele>811.6</ele>
        <time>2011-07-03T07:42:06Z</time>
      </trkpt>
      <trkpt lat="48.00437" lon="7.14539">
        <ele>814.4</ele>
        <time>2011-07-03T07:42:28Z</time>
      </trkpt>
      <trkpt lat="48.0044" lon="7.14425">
        <ele>834.7</ele>
        <time>2011-07-03T07:43:05Z</time>
      </trkpt>
      <trkpt lat="48.00445" lon="7.14361">
        <ele>847.7</ele>
        <time>2011-07-03T07:43:25Z</time>
      </trkpt>
      <trkpt lat="48.00432" lon="7.14307">
        <ele>851.7</ele>
        <time>2011-07-03T07:43:44Z</time>
      </trkpt>
      <trkpt lat="48.00419" lon="7.14276">
        <ele>852.6</ele>
        <time>2011-07-03T07:43:54Z</time>
      </trkpt>
      <trkpt lat="48.00383" lon="7.14259">
        <ele>843.2</ele>
        <time>2011-07-03T07:44:15Z</time>
      </trkpt>
      <trkpt lat="48.00357" lon="7.14257">
        <ele>839.3</ele>
        <time>2011-07-03T07:44:22Z</time>
      </trkpt>
      <trkpt lat="48.0032" lon="7.14236">
        <ele>844</ele>
        <time>2011-07-03T07:44:36Z</time>
      </trkpt>
      <trkpt lat="48.00275" lon="7.14245">
        <ele>839.4</ele>
        <time>2011-07-03T07:44:46Z</time>
      </trkpt>
      <trkpt lat="48.00241" lon="7.14259">
        <ele>835.3</ele>
        <time>2011-07-03T07:44:57Z</time>
      </trkpt>
      <trkpt lat="48.00202" lon="7.14258">
        <ele>836.8</ele>
        <time>2011-07-03T07:45:10Z</time>
      </trkpt>
      <trkpt lat="48.00172" lon="7.14215">
        <ele>850.3</ele>
        <time>2011-07-03T07:45:22Z</time>
      </trkpt>
      <trkpt lat="48.00133" lon="7.14196">
        <ele>857.1</ele>
        <time>2011-07-03T07:45:36Z</time>
      </trkpt>
      <trkpt lat="48.00114" lon="7.14177">
        <ele>862.5</ele>
        <time>2011-07-03T07:45:44Z</time>
      </trkpt>
      <trkpt lat="48.00072" lon="7.14151">
        <ele>863.8</ele>
        <time>2011-07-03T07:45:59Z</time>
      </trkpt>
      <trkpt lat="48.00031" lon="7.14116">
        <ele>865.4</ele>
        <time>2011-07-03T07:46:15Z</time>
      </trkpt>
      <trkpt lat="47.99992" lon="7.14092">
        <ele>864.3</ele>
        <time>2011-07-03T07:46:27Z</time>
      </trkpt>
      <trkpt lat="47.99938" lon="7.14037">
        <ele>868</ele>
        <time>2011-07-03T07:46:50Z</time>
      </trkpt>
      <trkpt lat="47.99904" lon="7.14006">
        <ele>870.3</ele>
        <time>2011-07-03T07:47:06Z</time>
      </trkpt>
      <trkpt lat="47.99867" lon="7.13987">
        <ele>867.2</ele>
        <time>2011-07-03T07:47:21Z</time>
      </trkpt>
      <trkpt lat="47.99851" lon="7.13964">
        <ele>871.1</ele>
        <time>2011-07-03T07:47:30Z</time>
      </trkpt>
      <trkpt lat="47.99825" lon="7.13918">
        <ele>877.9</ele>
        <time>2011-07-03T07:47:57Z</time>
      </trkpt>
      <trkpt lat="47.99796" lon="7.1388">
        <ele>880.9</ele>
        <time>2011-07-03T07:48:26Z</time>
      </trkpt>
      <trkpt lat="47.9978" lon="7.13862">
        <ele>883.6</ele>
        <time>2011-07-03T07:48:44Z</time>
      </trkpt>
      <trkpt lat="47.99742" lon="7.13845">
        <ele>884.3</ele>
        <time>2011-07-03T07:49:06Z</time>
      </trkpt>
      <trkpt lat="47.99704" lon="7.13823">
        <ele>887.3</ele>
        <time>2011-07-03T07:49:24Z</time>
      </trkpt>
      <trkpt lat="47.99669" lon="7.138">
        <ele>892.4</ele>
        <time>2011-07-03T07:49:46Z</time>
      </trkpt>
      <trkpt lat="47.99649" lon="7.13806">
        <ele>888.6</ele>
        <time>2011-07-03T07:49:58Z</time>
      </trkpt>
      <trkpt lat="47.99611" lon="7.13778">
        <ele>895.2</ele>
        <time>2011-07-03T07:50:14Z</time>
      </trkpt>
      <trkpt lat="47.9957" lon="7.13777">
        <ele>891.9</ele>
        <time>2011-07-03T07:50:28Z</time>
      </trkpt>
      <trkpt lat="47.99491" lon="7.13749">
        <ele>890.2</ele>
        <time>2011-07-03T07:50:40Z</time>
      </trkpt>
      <trkpt lat="47.99454" lon="7.13743">
        <ele>886.2</ele>
        <time>2011-07-03T07:50:44Z</time>
      </trkpt>
      <trkpt lat="47.99432" lon="7.13732">
        <ele>888.2</ele>
        <time>2011-07-03T07:50:48Z</time>
      </trkpt>
      <trkpt lat="47.99393" lon="7.13723">
        <ele>887.7</ele>
        <time>2011-07-03T07:50:56Z</time>
      </trkpt>
      <trkpt lat="47.99349" lon="7.13726">
        <ele>884.2</ele>
        <time>2011-07-03T07:51:20Z</time>
      </trkpt>
      <trkpt lat="47.99325" lon="7.13769">
        <ele>869.3</ele>
        <time>2011-07-03T07:52:00Z</time>
      </trkpt>
      <trkpt lat="47.99293" lon="7.13741">
        <ele>878.4</ele>
        <time>2011-07-03T07:53:51Z</time>
      </trkpt>
      <trkpt lat="47.99284" lon="7.13789">
        <ele>864.3</ele>
        <time>2011-07-03T07:54:41Z</time>
      </trkpt>
      <trkpt lat="47.99292" lon="7.13845">
        <ele>851.7</ele>
        <time>2011-07-03T07:55:05Z</time>
      </trkpt>
      <trkpt lat="47.99316" lon="7.13918">
        <ele>843.7</ele>
        <time>2011-07-03T07:55:30Z</time>
      </trkpt>
      <trkpt lat="47.9933" lon="7.13977">
        <ele>842.3</ele>
        <time>2011-07-03T07:55:44Z</time>
      </trkpt>
      <trkpt lat="47.9933" lon="7.14039">
        <ele>850.4</ele>
        <time>2011-07-03T07:56:03Z</time>
      </trkpt>
      <trkpt lat="47.99335" lon="7.14104">
        <ele>854.7</ele>
        <time>2011-07-03T07:56:14Z</time>
      </trkpt>
      <trkpt lat="47.99347" lon="7.14134">
        <ele>852.7</ele>
        <time>2011-07-03T07:56:20Z</time>
      </trkpt>
      <trkpt lat="47.99332" lon="7.14183">
        <ele>862.9</ele>
        <time>2011-07-03T07:56:56Z</time>
      </trkpt>
      <trkpt lat="47.9929" lon="7.14169">
        <ele>877.6</ele>
        <time>2011-07-03T07:57:15Z</time>
      </trkpt>
      <trkpt lat="47.99249" lon="7.1417">
        <ele>888.1</ele>
        <time>2011-07-03T07:57:53Z</time>
      </trkpt>
      <trkpt lat="47.99218" lon="7.14133">
        <ele>901.9</ele>
        <time>2011-07-03T07:58:12Z</time>
      </trkpt>
      <trkpt lat="47.992" lon="7.14125">
        <ele>907.3</ele>
        <time>2011-07-03T07:58:33Z</time>
      </trkpt>
      <trkpt lat="47.99169" lon="7.14103">
        <ele>909.4</ele>
        <time>2011-07-03T07:58:52Z</time>
      </trkpt>
      <trkpt lat="47.99119" lon="7.14047">
        <ele>924.4</ele>
        <time>2011-07-03T07:59:35Z</time>
      </trkpt>
      <trkpt lat="47.99062" lon="7.14006">
        <ele>922</ele>
        <time>2011-07-03T08:00:38Z</time>
      </trkpt>
      <trkpt lat="47.99031" lon="7.13967">
        <ele>926.2</ele>
        <time>2011-07-03T08:01:24Z</time>
      </trkpt>
      <trkpt lat="47.99" lon="7.13961">
        <ele>923.1</ele>
        <time>2011-07-03T08:02:38Z</time>
      </trkpt>
      <trkpt lat="47.98993" lon="7.1402">
        <ele>909.5</ele>
        <time>2011-07-03T08:02:46Z</time>
      </trkpt>
      <trkpt lat="47.98997" lon="7.14055">
        <ele>902.5</ele>
        <time>2011-07-03T08:02:54Z</time>
      </trkpt>
      <trkpt lat="47.99012" lon="7.14124">
        <ele>887.4</ele>
        <time>2011-07-03T08:03:58Z</time>
      </trkpt>
      <trkpt lat="47.99009" lon="7.14184">
        <ele>872.5</ele>
        <time>2011-07-03T08:04:18Z</time>
      </trkpt>
      <trkpt lat="47.99015" lon="7.14242">
        <ele>861.5</ele>
        <time>2011-07-03T08:04:36Z</time>
      </trkpt>
      <trkpt lat="47.9901" lon="7.14299">
        <ele>858</ele>
        <time>2011-07-03T08:04:50Z</time>
      </trkpt>
      <trkpt lat="47.99004" lon="7.14325">
        <ele>860.4</ele>
        <time>2011-07-03T08:04:56Z</time>
      </trkpt>
      <trkpt lat="47.99022" lon="7.14392">
        <ele>852</ele>
        <time>2011-07-03T08:05:06Z</time>
      </trkpt>
      <trkpt lat="47.99038" lon="7.145">
        <ele>856.1</ele>
        <time>2011-07-03T08:05:19Z</time>
      </trkpt>
      <trkpt lat="47.99053" lon="7.1456">
        <ele>854.9</ele>
        <time>2011-07-03T08:05:27Z</time>
      </trkpt>
      <trkpt lat="47.99056" lon="7.14634">
        <ele>857.2</ele>
        <time>2011-07-03T08:05:33Z</time>
      </trkpt>
      <trkpt lat="47.99066" lon="7.14716">
        <ele>850.3</ele>
        <time>2011-07-03T08:05:41Z</time>
      </trkpt>
      <trkpt lat="47.99025" lon="7.14731">
        <ele>864.7</ele>
        <time>2011-07-03T08:05:52Z</time>
      </trkpt>
      <trkpt lat="47.98985" lon="7.14697">
        <ele>874.4</ele>
        <time>2011-07-03T08:06:03Z</time>
      </trkpt>
      <trkpt lat="47.98969" lon="7.14681">
        <ele>879.7</ele>
        <time>2011-07-03T08:06:07Z</time>
      </trkpt>
      <trkpt lat="47.98934" lon="7.14652">
        <ele>887.4</ele>
        <time>2011-07-03T08:06:15Z</time>
      </trkpt>
      <trkpt lat="47.98901" lon="7.14616">
        <ele>895.2</ele>
        <time>2011-07-03T08:06:23Z</time>
      </trkpt>
      <trkpt lat="47.9886" lon="7.14607">
        <ele>898</ele>
        <time>2011-07-03T08:06:31Z</time>
      </trkpt>
      <trkpt lat="47.98808" lon="7.14621">
        <ele>892.7</ele>
        <time>2011-07-03T08:06:39Z</time>
      </trkpt>
      <trkpt lat="47.98786" lon="7.14629">
        <ele>890.6</ele>
        <time>2011-07-03T08:06:43Z</time>
      </trkpt>
      <trkpt lat="47.98743" lon="7.14659">
        <ele>886</ele>
        <time>2011-07-03T08:06:51Z</time>
      </trkpt>
      <trkpt lat="47.98708" lon="7.14703">
        <ele>874.2</ele>
        <time>2011-07-03T08:06:59Z</time>
      </trkpt>
      <trkpt lat="47.9866" lon="7.14723">
        <ele>876.9</ele>
        <time>2011-07-03T08:07:09Z</time>
      </trkpt>
      <trkpt lat="47.98612" lon="7.1471">
        <ele>885.4</ele>
        <time>2011-07-03T08:07:19Z</time>
      </trkpt>
      <trkpt lat="47.98568" lon="7.1469">
        <ele>890.4</ele>
        <time>2011-07-03T08:07:29Z</time>
      </trkpt>
      <trkpt lat="47.98545" lon="7.1469">
        <ele>889.6</ele>
        <time>2011-07-03T08:07:35Z</time>
      </trkpt>
      <trkpt lat="47.98504" lon="7.14672">
        <ele>888.2</ele>
        <time>2011-07-03T08:07:50Z</time>
      </trkpt>
      <trkpt lat="47.98484" lon="7.14655">
        <ele>888.8</ele>
        <time>2011-07-03T08:08:03Z</time>
      </trkpt>
      <trkpt lat="47.98451" lon="7.14619">
        <ele>890</ele>
        <time>2011-07-03T08:08:32Z</time>
      </trkpt>
      <trkpt lat="47.98432" lon="7.14568">
        <ele>896.8</ele>
        <time>2011-07-03T08:08:46Z</time>
      </trkpt>
      <trkpt lat="47.98408" lon="7.1452">
        <ele>901.6</ele>
        <time>2011-07-03T08:09:04Z</time>
      </trkpt>
      <trkpt lat="47.98392" lon="7.14454">
        <ele>916.1</ele>
        <time>2011-07-03T08:09:22Z</time>
      </trkpt>
      <trkpt lat="47.98352" lon="7.14423">
        <ele>922.3</ele>
        <time>2011-07-03T08:09:33Z</time>
      </trkpt>
      <trkpt lat="47.98305" lon="7.14411">
        <ele>919.7</ele>
        <time>2011-07-03T08:09:41Z</time>
      </trkpt>
      <trkpt lat="47.98207" lon="7.14379">
        <ele>905.7</ele>
        <time>2011-07-03T08:09:54Z</time>
      </trkpt>
      <trkpt lat="47.98153" lon="7.14354">
        <ele>900.8</ele>
        <time>2011-07-03T08:10:02Z</time>
      </trkpt>
      <trkpt lat="47.9812" lon="7.14326">
        <ele>898.7</ele>
        <time>2011-07-03T08:10:10Z</time>
      </trkpt>
      <trkpt lat="47.98107" lon="7.143">
        <ele>900.3</ele>
        <time>2011-07-03T08:10:16Z</time>
      </trkpt>
      <trkpt lat="47.98076" lon="7.14267">
        <ele>895.9</ele>
        <time>2011-07-03T08:10:25Z</time>
      </trkpt>
      <trkpt lat="47.9807" lon="7.14336">
        <ele>884.7</ele>
        <time>2011-07-03T08:10:44Z</time>
      </trkpt>
      <trkpt lat="47.98069" lon="7.14405">
        <ele>874.8</ele>
        <time>2011-07-03T08:10:58Z</time>
      </trkpt>
      <trkpt lat="47.98078" lon="7.14465">
        <ele>867.8</ele>
        <time>2011-07-03T08:11:18Z</time>
      </trkpt>
      <trkpt lat="47.98082" lon="7.14521">
        <ele>860.5</ele>
        <time>2011-07-03T08:11:42Z</time>
      </trkpt>
      <trkpt lat="47.98079" lon="7.14552">
        <ele>858.1</ele>
        <time>2011-07-03T08:11:54Z</time>
      </trkpt>
      <trkpt lat="47.98079" lon="7.14607">
        <ele>856.6</ele>
        <time>2011-07-03T08:12:19Z</time>
      </trkpt>
      <trkpt lat="47.98059" lon="7.14621">
        <ele>864.6</ele>
        <time>2011-07-03T08:12:32Z</time>
      </trkpt>
      <trkpt lat="47.98017" lon="7.14618">
        <ele>879.9</ele>
        <time>2011-07-03T08:12:50Z</time>
      </trkpt>
      <trkpt lat="47.97979" lon="7.14613">
        <ele>893.1</ele>
        <time>2011-07-03T08:13:00Z</time>
      </trkpt>
      <trkpt lat="47.97917" lon="7.14591">
        <ele>906</ele>
        <time>2011-07-03T08:13:14Z</time>
      </trkpt>
      <trkpt lat="47.97881" lon="7.14568">
        <ele>914</ele>
        <time>2011-07-03T08:13:26Z</time>
      </trkpt>
      <trkpt lat="47.97859" lon="7.14548">
        <ele>919.1</ele>
        <time>2011-07-03T08:13:32Z</time>
      </trkpt>
      <trkpt lat="47.97824" lon="7.14574">
        <ele>916.5</ele>
        <time>2011-07-03T08:13:48Z</time>
      </trkpt>
      <trkpt lat="47.97808" lon="7.1461">
        <ele>909.9</ele>
        <time>2011-07-03T08:13:55Z</time>
      </trkpt>
      <trkpt lat="47.97777" lon="7.14657">
        <ele>904.7</ele>
        <time>2011-07-03T08:14:03Z</time>
      </trkpt>
      <trkpt lat="47.97736" lon="7.14701">
        <ele>907.9</ele>
        <time>2011-07-03T08:14:13Z</time>
      </trkpt>
      <trkpt lat="47.97652" lon="7.1478">
        <ele>898.2</ele>
        <time>2011-07-03T08:14:31Z</time>
      </trkpt>
      <trkpt lat="47.97615" lon="7.14779">
        <ele>901.4</ele>
        <time>2011-07-03T08:14:47Z</time>
      </trkpt>
      <trkpt lat="47.97598" lon="7.14725">
        <ele>916.4</ele>
        <time>2011-07-03T08:15:08Z</time>
      </trkpt>
      <trkpt lat="47.97585" lon="7.14703">
        <ele>919.9</ele>
        <time>2011-07-03T08:15:16Z</time>
      </trkpt>
      <trkpt lat="47.97556" lon="7.14661">
        <ele>922.6</ele>
        <time>2011-07-03T08:15:34Z</time>
      </trkpt>
      <trkpt lat="47.97526" lon="7.14569">
        <ele>939.9</ele>
        <time>2011-07-03T08:15:55Z</time>
      </trkpt>
      <trkpt lat="47.97505" lon="7.14514">
        <ele>951.7</ele>
        <time>2011-07-03T08:16:08Z</time>
      </trkpt>
      <trkpt lat="47.97466" lon="7.14498">
        <ele>945.3</ele>
        <time>2011-07-03T08:16:21Z</time>
      </trkpt>
      <trkpt lat="47.97413" lon="7.14406">
        <ele>936.6</ele>
        <time>2011-07-03T08:17:08Z</time>
      </trkpt>
      <trkpt lat="47.97379" lon="7.1437">
        <ele>920.6</ele>
        <time>2011-07-03T08:17:25Z</time>
      </trkpt>
      <trkpt lat="47.97359" lon="7.1432">
        <ele>911.4</ele>
        <time>2011-07-03T08:17:46Z</time>
      </trkpt>
      <trkpt lat="47.97366" lon="7.14288">
        <ele>913.8</ele>
        <time>2011-07-03T08:17:54Z</time>
      </trkpt>
      <trkpt lat="47.97387" lon="7.1424">
        <ele>928.3</ele>
        <time>2011-07-03T08:18:09Z</time>
      </trkpt>
      <trkpt lat="47.97395" lon="7.14214">
        <ele>935.2</ele>
        <time>2011-07-03T08:18:19Z</time>
      </trkpt>
      <trkpt lat="47.97421" lon="7.14166">
        <ele>957</ele>
        <time>2011-07-03T08:18:40Z</time>
      </trkpt>
      <trkpt lat="47.9742" lon="7.14099">
        <ele>969.6</ele>
        <time>2011-07-03T08:19:01Z</time>
      </trkpt>
      <trkpt lat="47.9739" lon="7.1405">
        <ele>972</ele>
        <time>2011-07-03T08:19:22Z</time>
      </trkpt>
      <trkpt lat="47.97353" lon="7.14046">
        <ele>969.9</ele>
        <time>2011-07-03T08:19:40Z</time>
      </trkpt>
      <trkpt lat="47.97333" lon="7.14037">
        <ele>971.9</ele>
        <time>2011-07-03T08:19:49Z</time>
      </trkpt>
      <trkpt lat="47.97292" lon="7.14038">
        <ele>971.8</ele>
        <time>2011-07-03T08:20:11Z</time>
      </trkpt>
      <trkpt lat="47.97255" lon="7.14016">
        <ele>973.9</ele>
        <time>2011-07-03T08:20:34Z</time>
      </trkpt>
      <trkpt lat="47.97242" lon="7.13955">
        <ele>989.8</ele>
        <time>2011-07-03T08:21:02Z</time>
      </trkpt>
      <trkpt lat="47.97221" lon="7.13941">
        <ele>994.3</ele>
        <time>2011-07-03T08:21:20Z</time>
      </trkpt>
      <trkpt lat="47.97182" lon="7.13954">
        <ele>992.7</ele>
        <time>2011-07-03T08:21:50Z</time>
      </trkpt>
      <trkpt lat="47.97127" lon="7.13936">
        <ele>1004.5</ele>
        <time>2011-07-03T08:22:37Z</time>
      </trkpt>
      <trkpt lat="47.97087" lon="7.13929">
        <ele>1011.4</ele>
        <time>2011-07-03T08:23:10Z</time>
      </trkpt>
      <trkpt lat="47.97066" lon="7.13933">
        <ele>1012.3</ele>
        <time>2011-07-03T08:23:23Z</time>
      </trkpt>
      <trkpt lat="47.9703" lon="7.13938">
        <ele>1014</ele>
        <time>2011-07-03T08:23:54Z</time>
      </trkpt>
      <trkpt lat="47.97013" lon="7.13956">
        <ele>1008.7</ele>
        <time>2011-07-03T08:24:16Z</time>
      </trkpt>
      <trkpt lat="47.96978" lon="7.13982">
        <ele>999.6</ele>
        <time>2011-07-03T08:24:44Z</time>
      </trkpt>
      <trkpt lat="47.96942" lon="7.13961">
        <ele>1006.6</ele>
        <time>2011-07-03T08:25:06Z</time>
      </trkpt>
      <trkpt lat="47.96909" lon="7.13926">
        <ele>1010.5</ele>
        <time>2011-07-03T08:25:28Z</time>
      </trkpt>
      <trkpt lat="47.9688" lon="7.13853">
        <ele>1016.6</ele>
        <time>2011-07-03T08:26:09Z</time>
      </trkpt>
      <trkpt lat="47.96865" lon="7.13801">
        <ele>1015.8</ele>
        <time>2011-07-03T08:26:32Z</time>
      </trkpt>
      <trkpt lat="47.9686" lon="7.13742">
        <ele>1017.6</ele>
        <time>2011-07-03T08:27:00Z</time>
      </trkpt>
      <trkpt lat="47.9686" lon="7.13659">
        <ele>1025.4</ele>
        <time>2011-07-03T08:27:42Z</time>
      </trkpt>
      <trkpt lat="47.96853" lon="7.13594">
        <ele>1029.1</ele>
        <time>2011-07-03T08:28:04Z</time>
      </trkpt>
      <trkpt lat="47.9684" lon="7.13536">
        <ele>1030.1</ele>
        <time>2011-07-03T08:28:20Z</time>
      </trkpt>
      <trkpt lat="47.9683" lon="7.13478">
        <ele>1036.3</ele>
        <time>2011-07-03T08:28:40Z</time>
      </trkpt>
      <trkpt lat="47.96822" lon="7.13419">
        <ele>1041.8</ele>
        <time>2011-07-03T08:29:07Z</time>
      </trkpt>
      <trkpt lat="47.96802" lon="7.1338">
        <ele>1042.8</ele>
        <time>2011-07-03T08:29:32Z</time>
      </trkpt>
      <trkpt lat="47.96768" lon="7.13355">
        <ele>1038</ele>
        <time>2011-07-03T08:30:02Z</time>
      </trkpt>
      <trkpt lat="47.96748" lon="7.13336">
        <ele>1034.7</ele>
        <time>2011-07-03T08:30:18Z</time>
      </trkpt>
      <trkpt lat="47.96713" lon="7.13311">
        <ele>1029.8</ele>
        <time>2011-07-03T08:30:51Z</time>
      </trkpt>
      <trkpt lat="47.96673" lon="7.13305">
        <ele>1022.7</ele>
        <time>2011-07-03T08:31:19Z</time>
      </trkpt>
      <trkpt lat="47.96652" lon="7.13299">
        <ele>1018.6</ele>
        <time>2011-07-03T08:31:26Z</time>
      </trkpt>
      <trkpt lat="47.9665" lon="7.13252">
        <ele>1012.3</ele>
        <time>2011-07-03T08:31:53Z</time>
      </trkpt>
      <trkpt lat="47.9668" lon="7.13212">
        <ele>1012.7</ele>
        <time>2011-07-03T08:32:22Z</time>
      </trkpt>
      <trkpt lat="47.96719" lon="7.13197">
        <ele>1017</ele>
        <time>2011-07-03T08:32:55Z</time>
      </trkpt>
      <trkpt lat="47.96757" lon="7.13198">
        <ele>1021.7</ele>
        <time>2011-07-03T08:33:25Z</time>
      </trkpt>
      <trkpt lat="47.9677" lon="7.13218">
        <ele>1026.7</ele>
        <time>2011-07-03T08:33:40Z</time>
      </trkpt>
      <trkpt lat="47.96816" lon="7.13221">
        <ele>1029.8</ele>
        <time>2011-07-03T08:34:11Z</time>
      </trkpt>
      <trkpt lat="47.96853" lon="7.13202">
        <ele>1025.3</ele>
        <time>2011-07-03T08:34:45Z</time>
      </trkpt>
      <trkpt lat="47.96872" lon="7.13199">
        <ele>1024</ele>
        <time>2011-07-03T08:34:59Z</time>
      </trkpt>
      <trkpt lat="47.9691" lon="7.13201">
        <ele>1022.9</ele>
        <time>2011-07-03T08:35:30Z</time>
      </trkpt>
      <trkpt lat="47.96948" lon="7.13207">
        <ele>1022.9</ele>
        <time>2011-07-03T08:36:00Z</time>
      </trkpt>
      <trkpt lat="47.96986" lon="7.1322">
        <ele>1029.9</ele>
        <time>2011-07-03T08:36:28Z</time>
      </trkpt>
      <trkpt lat="47.97025" lon="7.13224">
        <ele>1036.1</ele>
        <time>2011-07-03T08:36:46Z</time>
      </trkpt>
      <trkpt lat="47.97066" lon="7.13233">
        <ele>1044.6</ele>
        <time>2011-07-03T08:37:05Z</time>
      </trkpt>
      <trkpt lat="47.97113" lon="7.13229">
        <ele>1052.7</ele>
        <time>2011-07-03T08:40:44Z</time>
      </trkpt>
      <trkpt lat="47.97155" lon="7.13199">
        <ele>1054.1</ele>
        <time>2011-07-03T08:40:54Z</time>
      </trkpt>
      <trkpt lat="47.97178" lon="7.13187">
        <ele>1055.2</ele>
        <time>2011-07-03T08:41:00Z</time>
      </trkpt>
      <trkpt lat="47.97255" lon="7.13118">
        <ele>1052.8</ele>
        <time>2011-07-03T08:41:32Z</time>
      </trkpt>
      <trkpt lat="47.97277" lon="7.13108">
        <ele>1054.4</ele>
        <time>2011-07-03T08:41:40Z</time>
      </trkpt>
      <trkpt lat="47.97316" lon="7.13085">
        <ele>1058.3</ele>
        <time>2011-07-03T08:42:02Z</time>
      </trkpt>
      <trkpt lat="47.97355" lon="7.13069">
        <ele>1064.4</ele>
        <time>2011-07-03T08:42:25Z</time>
      </trkpt>
      <trkpt lat="47.97392" lon="7.13045">
        <ele>1069.8</ele>
        <time>2011-07-03T08:42:51Z</time>
      </trkpt>
      <trkpt lat="47.97389" lon="7.13076">
        <ele>1074.6</ele>
        <time>2011-07-03T08:43:27Z</time>
      </trkpt>
      <trkpt lat="47.97368" lon="7.13122">
        <ele>1077.8</ele>
        <time>2011-07-03T08:44:12Z</time>
      </trkpt>
      <trkpt lat="47.9735" lon="7.13207">
        <ele>1097.8</ele>
        <time>2011-07-03T08:45:06Z</time>
      </trkpt>
      <trkpt lat="47.97325" lon="7.13278">
        <ele>1108.7</ele>
        <time>2011-07-03T08:45:42Z</time>
      </trkpt>
      <trkpt lat="47.97274" lon="7.13379">
        <ele>1106.8</ele>
        <time>2011-07-03T08:46:16Z</time>
      </trkpt>
      <trkpt lat="47.97283" lon="7.13402">
        <ele>1110.8</ele>
        <time>2011-07-03T08:46:37Z</time>
      </trkpt>
      <trkpt lat="47.97341" lon="7.13388">
        <ele>1127.4</ele>
        <time>2011-07-03T08:47:17Z</time>
      </trkpt>
      <trkpt lat="47.97378" lon="7.13367">
        <ele>1136.6</ele>
        <time>2011-07-03T08:47:50Z</time>
      </trkpt>
      <trkpt lat="47.97399" lon="7.13368">
        <ele>1140</ele>
        <time>2011-07-03T08:48:06Z</time>
      </trkpt>
      <trkpt lat="47.97431" lon="7.13393">
        <ele>1146.5</ele>
        <time>2011-07-03T08:48:36Z</time>
      </trkpt>
      <trkpt lat="47.9746" lon="7.13438">
        <ele>1150.4</ele>
        <time>2011-07-03T08:49:14Z</time>
      </trkpt>
      <trkpt lat="47.97501" lon="7.13439">
        <ele>1154.2</ele>
        <time>2011-07-03T08:49:38Z</time>
      </trkpt>
      <trkpt lat="47.97546" lon="7.13446">
        <ele>1158.8</ele>
        <time>2011-07-03T08:49:59Z</time>
      </trkpt>
      <trkpt lat="47.97627" lon="7.13462">
        <ele>1157.8</ele>
        <time>2011-07-03T08:50:42Z</time>
      </trkpt>
      <trkpt lat="47.97663" lon="7.13459">
        <ele>1155.2</ele>
        <time>2011-07-03T08:51:08Z</time>
      </trkpt>
      <trkpt lat="47.97762" lon="7.13431">
        <ele>1153</ele>
        <time>2011-07-03T08:51:48Z</time>
      </trkpt>
      <trkpt lat="47.97813" lon="7.13408">
        <ele>1148</ele>
        <time>2011-07-03T08:51:56Z</time>
      </trkpt>
      <trkpt lat="47.97842" lon="7.13397">
        <ele>1140.2</ele>
        <time>2011-07-03T08:52:01Z</time>
      </trkpt>
      <trkpt lat="47.97886" lon="7.13364">
        <ele>1132.5</ele>
        <time>2011-07-03T08:52:07Z</time>
      </trkpt>
      <trkpt lat="47.97906" lon="7.13354">
        <ele>1127.3</ele>
        <time>2011-07-03T08:52:09Z</time>
      </trkpt>
      <trkpt lat="47.97945" lon="7.13321">
        <ele>1120.5</ele>
        <time>2011-07-03T08:52:15Z</time>
      </trkpt>
      <trkpt lat="47.97953" lon="7.13277">
        <ele>1129.3</ele>
        <time>2011-07-03T08:52:19Z</time>
      </trkpt>
      <trkpt lat="47.97984" lon="7.13226">
        <ele>1141.6</ele>
        <time>2011-07-03T08:52:25Z</time>
      </trkpt>
      <trkpt lat="47.98041" lon="7.13205">
        <ele>1148.3</ele>
        <time>2011-07-03T08:52:39Z</time>
      </trkpt>
      <trkpt lat="47.98059" lon="7.13204">
        <ele>1150.8</ele>
        <time>2011-07-03T08:52:41Z</time>
      </trkpt>
      <trkpt lat="47.98117" lon="7.13219">
        <ele>1149.5</ele>
        <time>2011-07-03T08:52:49Z</time>
      </trkpt>
      <trkpt lat="47.98136" lon="7.13233">
        <ele>1145.6</ele>
        <time>2011-07-03T08:52:53Z</time>
      </trkpt>
      <trkpt lat="47.98215" lon="7.13245">
        <ele>1148.8</ele>
        <time>2011-07-03T08:53:31Z</time>
      </trkpt>
      <trkpt lat="47.98277" lon="7.13266">
        <ele>1148</ele>
        <time>2011-07-03T08:53:39Z</time>
      </trkpt>
      <trkpt lat="47.98302" lon="7.13269">
        <ele>1149.9</ele>
        <time>2011-07-03T08:53:43Z</time>
      </trkpt>
      <trkpt lat="47.98346" lon="7.13286">
        <ele>1147.6</ele>
        <time>2011-07-03T08:53:57Z</time>
      </trkpt>
      <trkpt lat="47.98381" lon="7.13312">
        <ele>1144.2</ele>
        <time>2011-07-03T08:54:13Z</time>
      </trkpt>
      <trkpt lat="47.98412" lon="7.13339">
        <ele>1137.3</ele>
        <time>2011-07-03T08:54:31Z</time>
      </trkpt>
      <trkpt lat="47.98448" lon="7.13375">
        <ele>1129</ele>
        <time>2011-07-03T08:54:51Z</time>
      </trkpt>
      <trkpt lat="47.98488" lon="7.13383">
        <ele>1123.3</ele>
        <time>2011-07-03T08:55:10Z</time>
      </trkpt>
      <trkpt lat="47.98505" lon="7.13367">
        <ele>1124.6</ele>
        <time>2011-07-03T08:55:18Z</time>
      </trkpt>
      <trkpt lat="47.98536" lon="7.13329">
        <ele>1128.7</ele>
        <time>2011-07-03T08:55:37Z</time>
      </trkpt>
      <trkpt lat="47.9855" lon="7.13307">
        <ele>1132.9</ele>
        <time>2011-07-03T08:55:47Z</time>
      </trkpt>
      <trkpt lat="47.98582" lon="7.13269">
        <ele>1140.6</ele>
        <time>2011-07-03T08:56:12Z</time>
      </trkpt>
      <trkpt lat="47.98566" lon="7.13256">
        <ele>1142.4</ele>
        <time>2011-07-03T08:56:28Z</time>
      </trkpt>
      <trkpt lat="47.98522" lon="7.13267">
        <ele>1142.7</ele>
        <time>2011-07-03T08:56:58Z</time>
      </trkpt>
      <trkpt lat="47.98487" lon="7.13272">
        <ele>1146.2</ele>
        <time>2011-07-03T08:57:27Z</time>
      </trkpt>
      <trkpt lat="47.98498" lon="7.13247">
        <ele>1149.4</ele>
        <time>2011-07-03T08:57:42Z</time>
      </trkpt>
      <trkpt lat="47.98517" lon="7.13198">
        <ele>1154.2</ele>
        <time>2011-07-03T08:58:14Z</time>
      </trkpt>
      <trkpt lat="47.98522" lon="7.13169">
        <ele>1155.1</ele>
        <time>2011-07-03T08:58:33Z</time>
      </trkpt>
      <trkpt lat="47.98546" lon="7.1312">
        <ele>1154.8</ele>
        <time>2011-07-03T08:59:08Z</time>
      </trkpt>
      <trkpt lat="47.98562" lon="7.13064">
        <ele>1150.8</ele>
        <time>2011-07-03T08:59:42Z</time>
      </trkpt>
      <trkpt lat="47.98571" lon="7.13037">
        <ele>1147.6</ele>
        <time>2011-07-03T08:59:56Z</time>
      </trkpt>
      <trkpt lat="47.9856" lon="7.1298">
        <ele>1143.3</ele>
        <time>2011-07-03T09:00:21Z</time>
      </trkpt>
      <trkpt lat="47.98545" lon="7.12923">
        <ele>1142.9</ele>
        <time>2011-07-03T09:00:39Z</time>
      </trkpt>
      <trkpt lat="47.98533" lon="7.12887">
        <ele>1144.4</ele>
        <time>2011-07-03T09:00:45Z</time>
      </trkpt>
      <trkpt lat="47.98506" lon="7.12838">
        <ele>1148.4</ele>
        <time>2011-07-03T09:00:53Z</time>
      </trkpt>
      <trkpt lat="47.98495" lon="7.12812">
        <ele>1150.1</ele>
        <time>2011-07-03T09:00:59Z</time>
      </trkpt>
      <trkpt lat="47.98484" lon="7.12746">
        <ele>1152</ele>
        <time>2011-07-03T09:01:09Z</time>
      </trkpt>
      <trkpt lat="47.98483" lon="7.12687">
        <ele>1153.6</ele>
        <time>2011-07-03T09:01:17Z</time>
      </trkpt>
      <trkpt lat="47.98491" lon="7.12603">
        <ele>1156.4</ele>
        <time>2011-07-03T09:01:29Z</time>
      </trkpt>
      <trkpt lat="47.9849" lon="7.12537">
        <ele>1159.6</ele>
        <time>2011-07-03T09:01:39Z</time>
      </trkpt>
      <trkpt lat="47.98503" lon="7.12466">
        <ele>1161.4</ele>
        <time>2011-07-03T09:01:52Z</time>
      </trkpt>
      <trkpt lat="47.98528" lon="7.12335">
        <ele>1151.9</ele>
        <time>2011-07-03T09:02:17Z</time>
      </trkpt>
      <trkpt lat="47.98534" lon="7.12269">
        <ele>1150.4</ele>
        <time>2011-07-03T09:02:29Z</time>
      </trkpt>
      <trkpt lat="47.98533" lon="7.12199">
        <ele>1155.6</ele>
        <time>2011-07-03T09:02:41Z</time>
      </trkpt>
      <trkpt lat="47.98525" lon="7.12167">
        <ele>1158.3</ele>
        <time>2011-07-03T09:02:47Z</time>
      </trkpt>
      <trkpt lat="47.98502" lon="7.12121">
        <ele>1159.5</ele>
        <time>2011-07-03T09:21:57Z</time>
      </trkpt>
      <trkpt lat="47.98448" lon="7.12112">
        <ele>1154.8</ele>
        <time>2011-07-03T09:23:23Z</time>
      </trkpt>
      <trkpt lat="47.9837" lon="7.12156">
        <ele>1154.6</ele>
        <time>2011-07-03T09:24:34Z</time>
      </trkpt>
      <trkpt lat="47.98333" lon="7.12167">
        <ele>1156.2</ele>
        <time>2011-07-03T09:25:04Z</time>
      </trkpt>
      <trkpt lat="47.98296" lon="7.12181">
        <ele>1159.4</ele>
        <time>2011-07-03T09:25:32Z</time>
      </trkpt>
      <trkpt lat="47.98255" lon="7.12188">
        <ele>1160.6</ele>
        <time>2011-07-03T09:25:58Z</time>
      </trkpt>
      <trkpt lat="47.98212" lon="7.12198">
        <ele>1162.5</ele>
        <time>2011-07-03T09:26:18Z</time>
      </trkpt>
      <trkpt lat="47.98133" lon="7.12226">
        <ele>1170.8</ele>
        <time>2011-07-03T09:26:56Z</time>
      </trkpt>
      <trkpt lat="47.98077" lon="7.12229">
        <ele>1174</ele>
        <time>2011-07-03T09:27:16Z</time>
      </trkpt>
      <trkpt lat="47.98012" lon="7.12207">
        <ele>1178.3</ele>
        <time>2011-07-03T09:27:36Z</time>
      </trkpt>
      <trkpt lat="47.97984" lon="7.12127">
        <ele>1174.8</ele>
        <time>2011-07-03T09:27:46Z</time>
      </trkpt>
      <trkpt lat="47.97959" lon="7.12062">
        <ele>1172.9</ele>
        <time>2011-07-03T09:27:54Z</time>
      </trkpt>
      <trkpt lat="47.97924" lon="7.12001">
        <ele>1172.3</ele>
        <time>2011-07-03T09:28:04Z</time>
      </trkpt>
      <trkpt lat="47.97908" lon="7.1198">
        <ele>1174.1</ele>
        <time>2011-07-03T09:28:06Z</time>
      </trkpt>
      <trkpt lat="47.97874" lon="7.11919">
        <ele>1181.5</ele>
        <time>2011-07-03T09:28:14Z</time>
      </trkpt>
      <trkpt lat="47.97848" lon="7.11858">
        <ele>1188.7</ele>
        <time>2011-07-03T09:28:22Z</time>
      </trkpt>
      <trkpt lat="47.97859" lon="7.11791">
        <ele>1189</ele>
        <time>2011-07-03T09:29:04Z</time>
      </trkpt>
      <trkpt lat="47.97868" lon="7.11758">
        <ele>1187.5</ele>
        <time>2011-07-03T09:29:08Z</time>
      </trkpt>
      <trkpt lat="47.97875" lon="7.11686">
        <ele>1187.1</ele>
        <time>2011-07-03T09:29:16Z</time>
      </trkpt>
      <trkpt lat="47.97892" lon="7.1163">
        <ele>1175.9</ele>
        <time>2011-07-03T09:29:24Z</time>
      </trkpt>
      <trkpt lat="47.97891" lon="7.116">
        <ele>1174.1</ele>
        <time>2011-07-03T09:29:28Z</time>
      </trkpt>
      <trkpt lat="47.97896" lon="7.11542">
        <ele>1166.8</ele>
        <time>2011-07-03T09:29:36Z</time>
      </trkpt>
      <trkpt lat="47.97896" lon="7.11487">
        <ele>1159.3</ele>
        <time>2011-07-03T09:29:43Z</time>
      </trkpt>
      <trkpt lat="47.97892" lon="7.11415">
        <ele>1155.5</ele>
        <time>2011-07-03T09:29:51Z</time>
      </trkpt>
      <trkpt lat="47.97885" lon="7.11336">
        <ele>1153.6</ele>
        <time>2011-07-03T09:29:59Z</time>
      </trkpt>
      <trkpt lat="47.97859" lon="7.11266">
        <ele>1158.2</ele>
        <time>2011-07-03T09:30:07Z</time>
      </trkpt>
      <trkpt lat="47.97855" lon="7.11231">
        <ele>1156.9</ele>
        <time>2011-07-03T09:30:13Z</time>
      </trkpt>
      <trkpt lat="47.97834" lon="7.11165">
        <ele>1159.1</ele>
        <time>2011-07-03T09:30:27Z</time>
      </trkpt>
      <trkpt lat="47.97802" lon="7.11125">
        <ele>1167.2</ele>
        <time>2011-07-03T09:30:43Z</time>
      </trkpt>
      <trkpt lat="47.97788" lon="7.11069">
        <ele>1168.9</ele>
        <time>2011-07-03T09:31:01Z</time>
      </trkpt>
      <trkpt lat="47.97777" lon="7.11034">
        <ele>1169.7</ele>
        <time>2011-07-03T09:31:09Z</time>
      </trkpt>
      <trkpt lat="47.97768" lon="7.10957">
        <ele>1163.7</ele>
        <time>2011-07-03T09:31:21Z</time>
      </trkpt>
      <trkpt lat="47.97738" lon="7.10905">
        <ele>1170.7</ele>
        <time>2011-07-03T09:31:31Z</time>
      </trkpt>
      <trkpt lat="47.97724" lon="7.10851">
        <ele>1172.1</ele>
        <time>2011-07-03T09:32:27Z</time>
      </trkpt>
      <trkpt lat="47.97713" lon="7.1079">
        <ele>1170.4</ele>
        <time>2011-07-03T09:32:41Z</time>
      </trkpt>
      <trkpt lat="47.97716" lon="7.10721">
        <ele>1163.7</ele>
        <time>2011-07-03T09:32:51Z</time>
      </trkpt>
      <trkpt lat="47.97699" lon="7.10638">
        <ele>1158.6</ele>
        <time>2011-07-03T09:32:59Z</time>
      </trkpt>
      <trkpt lat="47.9768" lon="7.10564">
        <ele>1152.5</ele>
        <time>2011-07-03T09:33:07Z</time>
      </trkpt>
      <trkpt lat="47.97664" lon="7.10525">
        <ele>1149.1</ele>
        <time>2011-07-03T09:33:11Z</time>
      </trkpt>
      <trkpt lat="47.97648" lon="7.10451">
        <ele>1139</ele>
        <time>2011-07-03T09:33:17Z</time>
      </trkpt>
      <trkpt lat="47.97623" lon="7.10381">
        <ele>1128.3</ele>
        <time>2011-07-03T09:33:25Z</time>
      </trkpt>
      <trkpt lat="47.97594" lon="7.1032">
        <ele>1112.2</ele>
        <time>2011-07-03T09:34:05Z</time>
      </trkpt>
      <trkpt lat="47.97553" lon="7.10283">
        <ele>1100.5</ele>
        <time>2011-07-03T09:34:09Z</time>
      </trkpt>
      <trkpt lat="47.97505" lon="7.10257">
        <ele>1094</ele>
        <time>2011-07-03T09:34:15Z</time>
      </trkpt>
      <trkpt lat="47.97456" lon="7.1024">
        <ele>1091.7</ele>
        <time>2011-07-03T09:34:25Z</time>
      </trkpt>
      <trkpt lat="47.97419" lon="7.10205">
        <ele>1088</ele>
        <time>2011-07-03T09:34:35Z</time>
      </trkpt>
      <trkpt lat="47.97355" lon="7.10108">
        <ele>1079.8</ele>
        <time>2011-07-03T09:34:47Z</time>
      </trkpt>
      <trkpt lat="47.97346" lon="7.10065">
        <ele>1073.7</ele>
        <time>2011-07-03T09:34:51Z</time>
      </trkpt>
      <trkpt lat="47.9733" lon="7.10009">
        <ele>1065.7</ele>
        <time>2011-07-03T09:34:57Z</time>
      </trkpt>
      <trkpt lat="47.97296" lon="7.09935">
        <ele>1057</ele>
        <time>2011-07-03T09:35:05Z</time>
      </trkpt>
      <trkpt lat="47.97238" lon="7.09801">
        <ele>1041.8</ele>
        <time>2011-07-03T09:35:20Z</time>
      </trkpt>
      <trkpt lat="47.97228" lon="7.0973">
        <ele>1031.3</ele>
        <time>2011-07-03T09:35:32Z</time>
      </trkpt>
      <trkpt lat="47.97227" lon="7.0969">
        <ele>1025.1</ele>
        <time>2011-07-03T09:35:38Z</time>
      </trkpt>
      <trkpt lat="47.97197" lon="7.09644">
        <ele>1026</ele>
        <time>2011-07-03T09:35:46Z</time>
      </trkpt>
      <trkpt lat="47.97183" lon="7.09611">
        <ele>1026.2</ele>
        <time>2011-07-03T09:35:50Z</time>
      </trkpt>
      <trkpt lat="47.97169" lon="7.09567">
        <ele>1025</ele>
        <time>2011-07-03T09:35:54Z</time>
      </trkpt>
      <trkpt lat="47.97141" lon="7.09512">
        <ele>1028.6</ele>
        <time>2011-07-03T09:36:00Z</time>
      </trkpt>
      <trkpt lat="47.97124" lon="7.09496">
        <ele>1032.9</ele>
        <time>2011-07-03T09:36:04Z</time>
      </trkpt>
      <trkpt lat="47.97101" lon="7.09449">
        <ele>1034</ele>
        <time>2011-07-03T09:36:29Z</time>
      </trkpt>
      <trkpt lat="47.97059" lon="7.0941">
        <ele>1040.9</ele>
        <time>2011-07-03T09:36:56Z</time>
      </trkpt>
      <trkpt lat="47.97034" lon="7.09366">
        <ele>1043</ele>
        <time>2011-07-03T09:37:23Z</time>
      </trkpt>
      <trkpt lat="47.97016" lon="7.09341">
        <ele>1045</ele>
        <time>2011-07-03T09:37:29Z</time>
      </trkpt>
      <trkpt lat="47.96999" lon="7.09285">
        <ele>1043.5</ele>
        <time>2011-07-03T09:37:43Z</time>
      </trkpt>
      <trkpt lat="47.96976" lon="7.09238">
        <ele>1047</ele>
        <time>2011-07-03T09:37:55Z</time>
      </trkpt>
      <trkpt lat="47.96962" lon="7.09208">
        <ele>1049</ele>
        <time>2011-07-03T09:38:03Z</time>
      </trkpt>
      <trkpt lat="47.96952" lon="7.09154">
        <ele>1051.9</ele>
        <time>2011-07-03T09:38:15Z</time>
      </trkpt>
      <trkpt lat="47.9694" lon="7.09121">
        <ele>1056.3</ele>
        <time>2011-07-03T09:38:25Z</time>
      </trkpt>
      <trkpt lat="47.96931" lon="7.09059">
        <ele>1058.8</ele>
        <time>2011-07-03T09:38:38Z</time>
      </trkpt>
      <trkpt lat="47.96909" lon="7.09009">
        <ele>1067.7</ele>
        <time>2011-07-03T09:38:49Z</time>
      </trkpt>
      <trkpt lat="47.9691" lon="7.08951">
        <ele>1068.9</ele>
        <time>2011-07-03T09:39:05Z</time>
      </trkpt>
      <trkpt lat="47.96907" lon="7.08899">
        <ele>1073.4</ele>
        <time>2011-07-03T09:39:18Z</time>
      </trkpt>
      <trkpt lat="47.96907" lon="7.08869">
        <ele>1075.4</ele>
        <time>2011-07-03T09:39:25Z</time>
      </trkpt>
      <trkpt lat="47.96914" lon="7.08814">
        <ele>1077.1</ele>
        <time>2011-07-03T09:39:37Z</time>
      </trkpt>
      <trkpt lat="47.96934" lon="7.08759">
        <ele>1076.8</ele>
        <time>2011-07-03T09:39:53Z</time>
      </trkpt>
      <trkpt lat="47.96933" lon="7.08692">
        <ele>1089.4</ele>
        <time>2011-07-03T09:40:09Z</time>
      </trkpt>
      <trkpt lat="47.96945" lon="7.08635">
        <ele>1095.6</ele>
        <time>2011-07-03T09:40:25Z</time>
      </trkpt>
      <trkpt lat="47.96981" lon="7.08587">
        <ele>1100.7</ele>
        <time>2011-07-03T09:40:39Z</time>
      </trkpt>
      <trkpt lat="47.96988" lon="7.08554">
        <ele>1110.3</ele>
        <time>2011-07-03T09:40:45Z</time>
      </trkpt>
      <trkpt lat="47.97025" lon="7.08514">
        <ele>1118.2</ele>
        <time>2011-07-03T09:40:53Z</time>
      </trkpt>
      <trkpt lat="47.97072" lon="7.08482">
        <ele>1123.2</ele>
        <time>2011-07-03T09:41:03Z</time>
      </trkpt>
      <trkpt lat="47.97099" lon="7.0847">
        <ele>1124.1</ele>
        <time>2011-07-03T09:41:07Z</time>
      </trkpt>
      <trkpt lat="47.97136" lon="7.08465">
        <ele>1119.4</ele>
        <time>2011-07-03T09:41:25Z</time>
      </trkpt>
      <trkpt lat="47.97188" lon="7.08491">
        <ele>1098.8</ele>
        <time>2011-07-03T09:41:33Z</time>
      </trkpt>
      <trkpt lat="47.97228" lon="7.08516">
        <ele>1083.9</ele>
        <time>2011-07-03T09:41:41Z</time>
      </trkpt>
      <trkpt lat="47.97265" lon="7.08532">
        <ele>1070.8</ele>
        <time>2011-07-03T09:41:49Z</time>
      </trkpt>
      <trkpt lat="47.9731" lon="7.08547">
        <ele>1054.9</ele>
        <time>2011-07-03T09:41:59Z</time>
      </trkpt>
      <trkpt lat="47.97351" lon="7.08518">
        <ele>1043.1</ele>
        <time>2011-07-03T09:42:07Z</time>
      </trkpt>
      <trkpt lat="47.97385" lon="7.08447">
        <ele>1036.1</ele>
        <time>2011-07-03T09:42:15Z</time>
      </trkpt>
      <trkpt lat="47.97417" lon="7.08395">
        <ele>1026.3</ele>
        <time>2011-07-03T09:42:21Z</time>
      </trkpt>
      <trkpt lat="47.97443" lon="7.08308">
        <ele>1021.5</ele>
        <time>2011-07-03T09:42:29Z</time>
      </trkpt>
      <trkpt lat="47.97448" lon="7.08264">
        <ele>1020.5</ele>
        <time>2011-07-03T09:42:33Z</time>
      </trkpt>
      <trkpt lat="47.97461" lon="7.08186">
        <ele>1016.3</ele>
        <time>2011-07-03T09:42:41Z</time>
      </trkpt>
      <trkpt lat="47.97507" lon="7.08169">
        <ele>1001.2</ele>
        <time>2011-07-03T09:42:51Z</time>
      </trkpt>
      <trkpt lat="47.97554" lon="7.08186">
        <ele>987.5</ele>
        <time>2011-07-03T09:43:23Z</time>
      </trkpt>
      <trkpt lat="47.97582" lon="7.08186">
        <ele>983.7</ele>
        <time>2011-07-03T09:43:27Z</time>
      </trkpt>
      <trkpt lat="47.97621" lon="7.0816">
        <ele>978</ele>
        <time>2011-07-03T09:43:35Z</time>
      </trkpt>
      <trkpt lat="47.97713" lon="7.08088">
        <ele>952.1</ele>
        <time>2011-07-03T09:43:53Z</time>
      </trkpt>
      <trkpt lat="47.97758" lon="7.08052">
        <ele>933.9</ele>
        <time>2011-07-03T09:44:01Z</time>
      </trkpt>
      <trkpt lat="47.97801" lon="7.08009">
        <ele>916.3</ele>
        <time>2011-07-03T09:44:09Z</time>
      </trkpt>
      <trkpt lat="47.97813" lon="7.07959">
        <ele>909.1</ele>
        <time>2011-07-03T09:44:17Z</time>
      </trkpt>
      <trkpt lat="47.97833" lon="7.07905">
        <ele>903.4</ele>
        <time>2011-07-03T09:44:58Z</time>
      </trkpt>
      <trkpt lat="47.97873" lon="7.07908">
        <ele>890.3</ele>
        <time>2011-07-03T09:45:08Z</time>
      </trkpt>
      <trkpt lat="47.97903" lon="7.07963">
        <ele>884.6</ele>
        <time>2011-07-03T09:45:20Z</time>
      </trkpt>
      <trkpt lat="47.97934" lon="7.08003">
        <ele>881.2</ele>
        <time>2011-07-03T09:45:35Z</time>
      </trkpt>
      <trkpt lat="47.97975" lon="7.08012">
        <ele>871.9</ele>
        <time>2011-07-03T09:45:47Z</time>
      </trkpt>
      <trkpt lat="47.98009" lon="7.07971">
        <ele>862.4</ele>
        <time>2011-07-03T09:45:55Z</time>
      </trkpt>
      <trkpt lat="47.98025" lon="7.07949">
        <ele>857.9</ele>
        <time>2011-07-03T09:45:59Z</time>
      </trkpt>
      <trkpt lat="47.98047" lon="7.07903">
        <ele>850.5</ele>
        <time>2011-07-03T09:46:08Z</time>
      </trkpt>
      <trkpt lat="47.98069" lon="7.0788">
        <ele>843.7</ele>
        <time>2011-07-03T09:46:24Z</time>
      </trkpt>
      <trkpt lat="47.98076" lon="7.07948">
        <ele>844.9</ele>
        <time>2011-07-03T09:46:38Z</time>
      </trkpt>
      <trkpt lat="47.98068" lon="7.08008">
        <ele>847.9</ele>
        <time>2011-07-03T09:46:58Z</time>
      </trkpt>
      <trkpt lat="47.9805" lon="7.08059">
        <ele>853</ele>
        <time>2011-07-03T09:47:16Z</time>
      </trkpt>
      <trkpt lat="47.9804" lon="7.0809">
        <ele>856.8</ele>
        <time>2011-07-03T09:47:26Z</time>
      </trkpt>
      <trkpt lat="47.98029" lon="7.0815">
        <ele>861.2</ele>
        <time>2011-07-03T09:47:48Z</time>
      </trkpt>
      <trkpt lat="47.98027" lon="7.08208">
        <ele>862.5</ele>
        <time>2011-07-03T09:48:08Z</time>
      </trkpt>
      <trkpt lat="47.98003" lon="7.08265">
        <ele>867.1</ele>
        <time>2011-07-03T09:48:30Z</time>
      </trkpt>
      <trkpt lat="47.97986" lon="7.08317">
        <ele>870.8</ele>
        <time>2011-07-03T09:48:48Z</time>
      </trkpt>
      <trkpt lat="47.97978" lon="7.08374">
        <ele>872</ele>
        <time>2011-07-03T09:49:09Z</time>
      </trkpt>
      <trkpt lat="47.97961" lon="7.08464">
        <ele>874.4</ele>
        <time>2011-07-03T09:49:40Z</time>
      </trkpt>
      <trkpt lat="47.97952" lon="7.08525">
        <ele>877.4</ele>
        <time>2011-07-03T09:50:00Z</time>
      </trkpt>
      <trkpt lat="47.9794" lon="7.08553">
        <ele>880.8</ele>
        <time>2011-07-03T09:50:10Z</time>
      </trkpt>
      <trkpt lat="47.97909" lon="7.08592">
        <ele>888.3</ele>
        <time>2011-07-03T09:50:28Z</time>
      </trkpt>
      <trkpt lat="47.97871" lon="7.08589">
        <ele>897.4</ele>
        <time>2011-07-03T09:50:42Z</time>
      </trkpt>
      <trkpt lat="47.97852" lon="7.08581">
        <ele>902.9</ele>
        <time>2011-07-03T09:50:50Z</time>
      </trkpt>
      <trkpt lat="47.9781" lon="7.08576">
        <ele>914.8</ele>
        <time>2011-07-03T09:51:04Z</time>
      </trkpt>
      <trkpt lat="47.97747" lon="7.08594">
        <ele>930.5</ele>
        <time>2011-07-03T09:51:26Z</time>
      </trkpt>
      <trkpt lat="47.97699" lon="7.08613">
        <ele>939.6</ele>
        <time>2011-07-03T09:51:42Z</time>
      </trkpt>
      <trkpt lat="47.97663" lon="7.08643">
        <ele>938.5</ele>
        <time>2011-07-03T09:51:58Z</time>
      </trkpt>
      <trkpt lat="47.97633" lon="7.08676">
        <ele>936.4</ele>
        <time>2011-07-03T09:52:10Z</time>
      </trkpt>
      <trkpt lat="47.97596" lon="7.08712">
        <ele>939.8</ele>
        <time>2011-07-03T09:52:22Z</time>
      </trkpt>
      <trkpt lat="47.97589" lon="7.08769">
        <ele>925.3</ele>
        <time>2011-07-03T09:52:34Z</time>
      </trkpt>
      <trkpt lat="47.97589" lon="7.08802">
        <ele>915.9</ele>
        <time>2011-07-03T09:52:42Z</time>
      </trkpt>
      <trkpt lat="47.9757" lon="7.08858">
        <ele>907.7</ele>
        <time>2011-07-03T09:52:56Z</time>
      </trkpt>
      <trkpt lat="47.97537" lon="7.08897">
        <ele>915.5</ele>
        <time>2011-07-03T09:53:08Z</time>
      </trkpt>
      <trkpt lat="47.97499" lon="7.08906">
        <ele>935</ele>
        <time>2011-07-03T09:53:22Z</time>
      </trkpt>
      <trkpt lat="47.97477" lon="7.08901">
        <ele>947</ele>
        <time>2011-07-03T09:53:34Z</time>
      </trkpt>
      <trkpt lat="47.97436" lon="7.08883">
        <ele>965.7</ele>
        <time>2011-07-03T09:53:48Z</time>
      </trkpt>
      <trkpt lat="47.97344" lon="7.08888">
        <ele>983.7</ele>
        <time>2011-07-03T09:54:25Z</time>
      </trkpt>
      <trkpt lat="47.97326" lon="7.08909">
        <ele>978.1</ele>
        <time>2011-07-03T09:54:33Z</time>
      </trkpt>
      <trkpt lat="47.97328" lon="7.08962">
        <ele>960.4</ele>
        <time>2011-07-03T09:54:45Z</time>
      </trkpt>
      <trkpt lat="47.97334" lon="7.09015">
        <ele>945.2</ele>
        <time>2011-07-03T09:54:59Z</time>
      </trkpt>
      <trkpt lat="47.97337" lon="7.09074">
        <ele>936.7</ele>
        <time>2011-07-03T09:55:17Z</time>
      </trkpt>
      <trkpt lat="47.97334" lon="7.0913">
        <ele>936.9</ele>
        <time>2011-07-03T09:55:37Z</time>
      </trkpt>
      <trkpt lat="47.97352" lon="7.09193">
        <ele>934.7</ele>
        <time>2011-07-03T09:55:57Z</time>
      </trkpt>
      <trkpt lat="47.97363" lon="7.09245">
        <ele>934.4</ele>
        <time>2011-07-03T09:56:13Z</time>
      </trkpt>
      <trkpt lat="47.97367" lon="7.09278">
        <ele>935.3</ele>
        <time>2011-07-03T09:56:21Z</time>
      </trkpt>
      <trkpt lat="47.97387" lon="7.09338">
        <ele>928.6</ele>
        <time>2011-07-03T09:56:45Z</time>
      </trkpt>
      <trkpt lat="47.97403" lon="7.09397">
        <ele>924.2</ele>
        <time>2011-07-03T09:57:19Z</time>
      </trkpt>
      <trkpt lat="47.97416" lon="7.09425">
        <ele>921.9</ele>
        <time>2011-07-03T09:57:25Z</time>
      </trkpt>
      <trkpt lat="47.97443" lon="7.09469">
        <ele>917</ele>
        <time>2011-07-03T09:57:41Z</time>
      </trkpt>
      <trkpt lat="47.9748" lon="7.095">
        <ele>913</ele>
        <time>2011-07-03T09:57:59Z</time>
      </trkpt>
      <trkpt lat="47.97512" lon="7.09523">
        <ele>912.6</ele>
        <time>2011-07-03T09:58:19Z</time>
      </trkpt>
      <trkpt lat="47.97532" lon="7.09532">
        <ele>912</ele>
        <time>2011-07-03T09:58:25Z</time>
      </trkpt>
      <trkpt lat="47.97566" lon="7.09561">
        <ele>915.6</ele>
        <time>2011-07-03T09:58:42Z</time>
      </trkpt>
      <trkpt lat="47.97642" lon="7.09646">
        <ele>929.1</ele>
        <time>2011-07-03T09:59:24Z</time>
      </trkpt>
      <trkpt lat="47.97661" lon="7.09663">
        <ele>929.9</ele>
        <time>2011-07-03T09:59:34Z</time>
      </trkpt>
      <trkpt lat="47.97715" lon="7.09698">
        <ele>930.5</ele>
        <time>2011-07-03T10:00:02Z</time>
      </trkpt>
      <trkpt lat="47.97758" lon="7.09718">
        <ele>935.2</ele>
        <time>2011-07-03T10:00:27Z</time>
      </trkpt>
      <trkpt lat="47.97805" lon="7.09732">
        <ele>937</ele>
        <time>2011-07-03T10:00:46Z</time>
      </trkpt>
      <trkpt lat="47.97826" lon="7.09746">
        <ele>938.3</ele>
        <time>2011-07-03T10:00:50Z</time>
      </trkpt>
      <trkpt lat="47.9786" lon="7.09775">
        <ele>941.7</ele>
        <time>2011-07-03T10:01:08Z</time>
      </trkpt>
      <trkpt lat="47.97885" lon="7.09772">
        <ele>938.4</ele>
        <time>2011-07-03T10:01:42Z</time>
      </trkpt>
      <trkpt lat="47.97924" lon="7.09782">
        <ele>939.1</ele>
        <time>2011-07-03T10:01:50Z</time>
      </trkpt>
      <trkpt lat="47.97971" lon="7.09785">
        <ele>938.8</ele>
        <time>2011-07-03T10:02:03Z</time>
      </trkpt>
      <trkpt lat="47.98051" lon="7.09802">
        <ele>945.4</ele>
        <time>2011-07-03T10:02:25Z</time>
      </trkpt>
      <trkpt lat="47.9807" lon="7.09874">
        <ele>958.4</ele>
        <time>2011-07-03T10:02:47Z</time>
      </trkpt>
      <trkpt lat="47.98063" lon="7.09902">
        <ele>960.8</ele>
        <time>2011-07-03T10:02:53Z</time>
      </trkpt>
      <trkpt lat="47.98063" lon="7.09961">
        <ele>963.6</ele>
        <time>2011-07-03T10:03:07Z</time>
      </trkpt>
      <trkpt lat="47.98064" lon="7.10019">
        <ele>960.9</ele>
        <time>2011-07-03T10:03:21Z</time>
      </trkpt>
      <trkpt lat="47.98085" lon="7.10077">
        <ele>949.3</ele>
        <time>2011-07-03T10:03:35Z</time>
      </trkpt>
      <trkpt lat="47.98111" lon="7.10128">
        <ele>937.4</ele>
        <time>2011-07-03T10:03:47Z</time>
      </trkpt>
      <trkpt lat="47.98116" lon="7.10187">
        <ele>941.5</ele>
        <time>2011-07-03T10:04:01Z</time>
      </trkpt>
      <trkpt lat="47.98107" lon="7.1025">
        <ele>956.4</ele>
        <time>2011-07-03T10:04:17Z</time>
      </trkpt>
      <trkpt lat="47.9811" lon="7.10313">
        <ele>964.8</ele>
        <time>2011-07-03T10:04:33Z</time>
      </trkpt>
      <trkpt lat="47.98115" lon="7.10343">
        <ele>965.6</ele>
        <time>2011-07-03T10:04:41Z</time>
      </trkpt>
      <trkpt lat="47.98128" lon="7.10399">
        <ele>963.3</ele>
        <time>2011-07-03T10:04:55Z</time>
      </trkpt>
      <trkpt lat="47.98137" lon="7.10429">
        <ele>960.5</ele>
        <time>2011-07-03T10:05:03Z</time>
      </trkpt>
      <trkpt lat="47.98159" lon="7.1048">
        <ele>955.2</ele>
        <time>2011-07-03T10:05:17Z</time>
      </trkpt>
      <trkpt lat="47.98168" lon="7.10508">
        <ele>954.8</ele>
        <time>2011-07-03T10:05:25Z</time>
      </trkpt>
      <trkpt lat="47.98176" lon="7.10565">
        <ele>959.1</ele>
        <time>2011-07-03T10:05:39Z</time>
      </trkpt>
      <trkpt lat="47.98177" lon="7.10624">
        <ele>969.2</ele>
        <time>2011-07-03T10:05:55Z</time>
      </trkpt>
      <trkpt lat="47.98178" lon="7.1066">
        <ele>974.6</ele>
        <time>2011-07-03T10:06:05Z</time>
      </trkpt>
      <trkpt lat="47.98173" lon="7.10729">
        <ele>987.4</ele>
        <time>2011-07-03T10:06:21Z</time>
      </trkpt>
      <trkpt lat="47.98188" lon="7.10873">
        <ele>994.9</ele>
        <time>2011-07-03T10:06:59Z</time>
      </trkpt>
      <trkpt lat="47.98177" lon="7.10938">
        <ele>1003.5</ele>
        <time>2011-07-03T10:07:15Z</time>
      </trkpt>
      <trkpt lat="47.98149" lon="7.10981">
        <ele>1014.9</ele>
        <time>2011-07-03T10:07:32Z</time>
      </trkpt>
      <trkpt lat="47.98142" lon="7.11074">
        <ele>1010.8</ele>
        <time>2011-07-03T10:07:58Z</time>
      </trkpt>
      <trkpt lat="47.98143" lon="7.11132">
        <ele>1007.3</ele>
        <time>2011-07-03T10:08:16Z</time>
      </trkpt>
      <trkpt lat="47.98171" lon="7.11182">
        <ele>1005.5</ele>
        <time>2011-07-03T10:08:30Z</time>
      </trkpt>
      <trkpt lat="47.982" lon="7.1123">
        <ele>1010</ele>
        <time>2011-07-03T10:08:49Z</time>
      </trkpt>
      <trkpt lat="47.9823" lon="7.11248">
        <ele>1013.5</ele>
        <time>2011-07-03T10:09:10Z</time>
      </trkpt>
      <trkpt lat="47.98245" lon="7.11223">
        <ele>1007.7</ele>
        <time>2011-07-03T10:09:18Z</time>
      </trkpt>
      <trkpt lat="47.98254" lon="7.1118">
        <ele>994.8</ele>
        <time>2011-07-03T10:12:17Z</time>
      </trkpt>
      <trkpt lat="47.98318" lon="7.11151">
        <ele>981.3</ele>
        <time>2011-07-03T10:12:25Z</time>
      </trkpt>
      <trkpt lat="47.98354" lon="7.11127">
        <ele>972.7</ele>
        <time>2011-07-03T10:12:29Z</time>
      </trkpt>
      <trkpt lat="47.98384" lon="7.11119">
        <ele>968.6</ele>
        <time>2011-07-03T10:12:33Z</time>
      </trkpt>
      <trkpt lat="47.98399" lon="7.11155">
        <ele>975.8</ele>
        <time>2011-07-03T10:12:40Z</time>
      </trkpt>
      <trkpt lat="47.98398" lon="7.11246">
        <ele>994.5</ele>
        <time>2011-07-03T10:12:56Z</time>
      </trkpt>
      <trkpt lat="47.9842" lon="7.11286">
        <ele>995</ele>
        <time>2011-07-03T10:13:10Z</time>
      </trkpt>
      <trkpt lat="47.98442" lon="7.11287">
        <ele>991.2</ele>
        <time>2011-07-03T10:13:17Z</time>
      </trkpt>
      <trkpt lat="47.98481" lon="7.1127">
        <ele>988</ele>
        <time>2011-07-03T10:13:32Z</time>
      </trkpt>
      <trkpt lat="47.98519" lon="7.11247">
        <ele>987.7</ele>
        <time>2011-07-03T10:13:55Z</time>
      </trkpt>
      <trkpt lat="47.98555" lon="7.1122">
        <ele>987.8</ele>
        <time>2011-07-03T10:14:09Z</time>
      </trkpt>
      <trkpt lat="47.98597" lon="7.11203">
        <ele>998.8</ele>
        <time>2011-07-03T10:14:19Z</time>
      </trkpt>
      <trkpt lat="47.98646" lon="7.11188">
        <ele>1015.4</ele>
        <time>2011-07-03T10:14:31Z</time>
      </trkpt>
      <trkpt lat="47.98676" lon="7.11148">
        <ele>1025.1</ele>
        <time>2011-07-03T10:14:46Z</time>
      </trkpt>
      <trkpt lat="47.98683" lon="7.11087">
        <ele>1024</ele>
        <time>2011-07-03T10:14:59Z</time>
      </trkpt>
      <trkpt lat="47.98672" lon="7.1101">
        <ele>1012.9</ele>
        <time>2011-07-03T10:15:13Z</time>
      </trkpt>
      <trkpt lat="47.98659" lon="7.10945">
        <ele>1000.5</ele>
        <time>2011-07-03T10:15:24Z</time>
      </trkpt>
      <trkpt lat="47.98668" lon="7.10889">
        <ele>992.5</ele>
        <time>2011-07-03T10:15:35Z</time>
      </trkpt>
      <trkpt lat="47.98686" lon="7.10862">
        <ele>991.6</ele>
        <time>2011-07-03T10:15:41Z</time>
      </trkpt>
      <trkpt lat="47.98728" lon="7.10826">
        <ele>994.7</ele>
        <time>2011-07-03T10:15:49Z</time>
      </trkpt>
      <trkpt lat="47.98768" lon="7.10782">
        <ele>995.9</ele>
        <time>2011-07-03T10:15:57Z</time>
      </trkpt>
      <trkpt lat="47.98793" lon="7.10721">
        <ele>990.4</ele>
        <time>2011-07-03T10:16:05Z</time>
      </trkpt>
      <trkpt lat="47.98831" lon="7.1068">
        <ele>990.7</ele>
        <time>2011-07-03T10:16:13Z</time>
      </trkpt>
      <trkpt lat="47.98873" lon="7.10647">
        <ele>995.2</ele>
        <time>2011-07-03T10:16:21Z</time>
      </trkpt>
      <trkpt lat="47.98909" lon="7.10607">
        <ele>1000.8</ele>
        <time>2011-07-03T10:16:29Z</time>
      </trkpt>
      <trkpt lat="47.98938" lon="7.10548">
        <ele>1002.2</ele>
        <time>2011-07-03T10:16:37Z</time>
      </trkpt>
      <trkpt lat="47.98958" lon="7.10462">
        <ele>998.2</ele>
        <time>2011-07-03T10:16:45Z</time>
      </trkpt>
      <trkpt lat="47.98966" lon="7.10414">
        <ele>992.8</ele>
        <time>2011-07-03T10:16:49Z</time>
      </trkpt>
      <trkpt lat="47.98993" lon="7.10387">
        <ele>996.8</ele>
        <time>2011-07-03T10:17:23Z</time>
      </trkpt>
      <trkpt lat="47.99025" lon="7.10361">
        <ele>1001.4</ele>
        <time>2011-07-03T10:18:05Z</time>
      </trkpt>
      <trkpt lat="47.99029" lon="7.10332">
        <ele>996</ele>
        <time>2011-07-03T10:18:13Z</time>
      </trkpt>
      <trkpt lat="47.9905" lon="7.10283">
        <ele>991.9</ele>
        <time>2011-07-03T10:18:25Z</time>
      </trkpt>
      <trkpt lat="47.9907" lon="7.10259">
        <ele>993.1</ele>
        <time>2011-07-03T10:18:31Z</time>
      </trkpt>
      <trkpt lat="47.99103" lon="7.10213">
        <ele>994.3</ele>
        <time>2011-07-03T10:18:43Z</time>
      </trkpt>
      <trkpt lat="47.99136" lon="7.10158">
        <ele>992.8</ele>
        <time>2011-07-03T10:18:55Z</time>
      </trkpt>
      <trkpt lat="47.99159" lon="7.10106">
        <ele>983.8</ele>
        <time>2011-07-03T10:19:03Z</time>
      </trkpt>
      <trkpt lat="47.99172" lon="7.10072">
        <ele>976.4</ele>
        <time>2011-07-03T10:19:09Z</time>
      </trkpt>
      <trkpt lat="47.99208" lon="7.10055">
        <ele>974.7</ele>
        <time>2011-07-03T10:19:17Z</time>
      </trkpt>
      <trkpt lat="47.99248" lon="7.10045">
        <ele>971.8</ele>
        <time>2011-07-03T10:19:29Z</time>
      </trkpt>
      <trkpt lat="47.99267" lon="7.10044">
        <ele>971.6</ele>
        <time>2011-07-03T10:19:33Z</time>
      </trkpt>
      <trkpt lat="47.99316" lon="7.10058">
        <ele>976.9</ele>
        <time>2011-07-03T10:19:45Z</time>
      </trkpt>
      <trkpt lat="47.99361" lon="7.10061">
        <ele>981</ele>
        <time>2011-07-03T10:19:57Z</time>
      </trkpt>
      <trkpt lat="47.99382" lon="7.10055">
        <ele>981.6</ele>
        <time>2011-07-03T10:20:03Z</time>
      </trkpt>
      <trkpt lat="47.99427" lon="7.10032">
        <ele>982.9</ele>
        <time>2011-07-03T10:20:15Z</time>
      </trkpt>
      <trkpt lat="47.99469" lon="7.10017">
        <ele>984.8</ele>
        <time>2011-07-03T10:20:23Z</time>
      </trkpt>
      <trkpt lat="47.99506" lon="7.09996">
        <ele>983.1</ele>
        <time>2011-07-03T10:20:31Z</time>
      </trkpt>
      <trkpt lat="47.9954" lon="7.09967">
        <ele>981.1</ele>
        <time>2011-07-03T10:20:39Z</time>
      </trkpt>
      <trkpt lat="47.99562" lon="7.09961">
        <ele>979.2</ele>
        <time>2011-07-03T10:20:43Z</time>
      </trkpt>
      <trkpt lat="47.99616" lon="7.09955">
        <ele>974.7</ele>
        <time>2011-07-03T10:20:51Z</time>
      </trkpt>
      <trkpt lat="47.99641" lon="7.09963">
        <ele>971.3</ele>
        <time>2011-07-03T10:20:55Z</time>
      </trkpt>
      <trkpt lat="47.99685" lon="7.09998">
        <ele>964.9</ele>
        <time>2011-07-03T10:21:03Z</time>
      </trkpt>
      <trkpt lat="47.99694" lon="7.10124">
        <ele>974</ele>
        <time>2011-07-03T10:21:37Z</time>
      </trkpt>
      <trkpt lat="47.99697" lon="7.10154">
        <ele>974.4</ele>
        <time>2011-07-03T10:21:43Z</time>
      </trkpt>
      <trkpt lat="47.99687" lon="7.10216">
        <ele>979.3</ele>
        <time>2011-07-03T10:22:11Z</time>
      </trkpt>
      <trkpt lat="47.99681" lon="7.10247">
        <ele>981.4</ele>
        <time>2011-07-03T10:22:15Z</time>
      </trkpt>
      <trkpt lat="47.99676" lon="7.10391">
        <ele>974.1</ele>
        <time>2011-07-03T10:22:31Z</time>
      </trkpt>
      <trkpt lat="47.99684" lon="7.10484">
        <ele>964.7</ele>
        <time>2011-07-03T10:22:39Z</time>
      </trkpt>
      <trkpt lat="47.9969" lon="7.10511">
        <ele>960.2</ele>
        <time>2011-07-03T10:22:41Z</time>
      </trkpt>
      <trkpt lat="47.99701" lon="7.10567">
        <ele>951.8</ele>
        <time>2011-07-03T10:22:45Z</time>
      </trkpt>
      <trkpt lat="47.99716" lon="7.10625">
        <ele>942.1</ele>
        <time>2011-07-03T10:22:49Z</time>
      </trkpt>
      <trkpt lat="47.99744" lon="7.10685">
        <ele>938.5</ele>
        <time>2011-07-03T10:22:55Z</time>
      </trkpt>
      <trkpt lat="47.99771" lon="7.10734">
        <ele>938.5</ele>
        <time>2011-07-03T10:23:05Z</time>
      </trkpt>
      <trkpt lat="47.99797" lon="7.10776">
        <ele>940.7</ele>
        <time>2011-07-03T10:23:21Z</time>
      </trkpt>
      <trkpt lat="47.99826" lon="7.10813">
        <ele>945.5</ele>
        <time>2011-07-03T10:23:34Z</time>
      </trkpt>
      <trkpt lat="47.99862" lon="7.10842">
        <ele>949.9</ele>
        <time>2011-07-03T10:23:50Z</time>
      </trkpt>
      <trkpt lat="47.99888" lon="7.10887">
        <ele>958.8</ele>
        <time>2011-07-03T10:24:14Z</time>
      </trkpt>
      <trkpt lat="47.99929" lon="7.10876">
        <ele>957.7</ele>
        <time>2011-07-03T10:24:34Z</time>
      </trkpt>
      <trkpt lat="47.99971" lon="7.10879">
        <ele>957.8</ele>
        <time>2011-07-03T10:24:48Z</time>
      </trkpt>
      <trkpt lat="47.99993" lon="7.10878">
        <ele>956.3</ele>
        <time>2011-07-03T10:24:56Z</time>
      </trkpt>
      <trkpt lat="48.00038" lon="7.10885">
        <ele>954.6</ele>
        <time>2011-07-03T10:25:10Z</time>
      </trkpt>
      <trkpt lat="48.00063" lon="7.10876">
        <ele>949.8</ele>
        <time>2011-07-03T10:25:16Z</time>
      </trkpt>
      <trkpt lat="48.00086" lon="7.10827">
        <ele>936.6</ele>
        <time>2011-07-03T10:33:25Z</time>
      </trkpt>
      <trkpt lat="48.00135" lon="7.10808">
        <ele>924.6</ele>
        <time>2011-07-03T10:33:37Z</time>
      </trkpt>
      <trkpt lat="48.00166" lon="7.10813">
        <ele>917.6</ele>
        <time>2011-07-03T10:33:41Z</time>
      </trkpt>
      <trkpt lat="48.00202" lon="7.10784">
        <ele>903</ele>
        <time>2011-07-03T10:33:59Z</time>
      </trkpt>
      <trkpt lat="48.00239" lon="7.10808">
        <ele>899.5</ele>
        <time>2011-07-03T10:34:13Z</time>
      </trkpt>
      <trkpt lat="48.00255" lon="7.10788">
        <ele>893.4</ele>
        <time>2011-07-03T10:34:21Z</time>
      </trkpt>
      <trkpt lat="48.00294" lon="7.10772">
        <ele>883.2</ele>
        <time>2011-07-03T10:34:35Z</time>
      </trkpt>
      <trkpt lat="48.00308" lon="7.10718">
        <ele>873.5</ele>
        <time>2011-07-03T10:34:53Z</time>
      </trkpt>
      <trkpt lat="48.00347" lon="7.10739">
        <ele>875.3</ele>
        <time>2011-07-03T10:35:09Z</time>
      </trkpt>
      <trkpt lat="48.00384" lon="7.10706">
        <ele>871.3</ele>
        <time>2011-07-03T10:35:31Z</time>
      </trkpt>
      <trkpt lat="48.00452" lon="7.1065">
        <ele>861.2</ele>
        <time>2011-07-03T10:35:43Z</time>
      </trkpt>
      <trkpt lat="48.00467" lon="7.10595">
        <ele>848.9</ele>
        <time>2011-07-03T10:35:51Z</time>
      </trkpt>
      <trkpt lat="48.00516" lon="7.10596">
        <ele>843</ele>
        <time>2011-07-03T10:35:59Z</time>
      </trkpt>
      <trkpt lat="48.00582" lon="7.10608">
        <ele>833.6</ele>
        <time>2011-07-03T10:36:08Z</time>
      </trkpt>
      <trkpt lat="48.00643" lon="7.10652">
        <ele>828.2</ele>
        <time>2011-07-03T10:36:16Z</time>
      </trkpt>
      <trkpt lat="48.0068" lon="7.10685">
        <ele>824.7</ele>
        <time>2011-07-03T10:36:20Z</time>
      </trkpt>
      <trkpt lat="48.00718" lon="7.10703">
        <ele>818.3</ele>
        <time>2011-07-03T10:36:24Z</time>
      </trkpt>
      <trkpt lat="48.00748" lon="7.10735">
        <ele>816.3</ele>
        <time>2011-07-03T10:36:28Z</time>
      </trkpt>
      <trkpt lat="48.00769" lon="7.10779">
        <ele>817.8</ele>
        <time>2011-07-03T10:36:32Z</time>
      </trkpt>
      <trkpt lat="48.0079" lon="7.10865">
        <ele>822.3</ele>
        <time>2011-07-03T10:36:38Z</time>
      </trkpt>
      <trkpt lat="48.00794" lon="7.10899">
        <ele>823.3</ele>
        <time>2011-07-03T10:36:40Z</time>
      </trkpt>
      <trkpt lat="48.00791" lon="7.10961">
        <ele>826.9</ele>
        <time>2011-07-03T10:36:44Z</time>
      </trkpt>
      <trkpt lat="48.00791" lon="7.10994">
        <ele>824.1</ele>
        <time>2011-07-03T10:36:46Z</time>
      </trkpt>
      <trkpt lat="48.00798" lon="7.11056">
        <ele>815</ele>
        <time>2011-07-03T10:36:50Z</time>
      </trkpt>
      <trkpt lat="48.00795" lon="7.11129">
        <ele>808</ele>
        <time>2011-07-03T10:36:56Z</time>
      </trkpt>
      <trkpt lat="48.00783" lon="7.11199">
        <ele>806.6</ele>
        <time>2011-07-03T10:37:08Z</time>
      </trkpt>
      <trkpt lat="48.00764" lon="7.11225">
        <ele>809.7</ele>
        <time>2011-07-03T10:37:14Z</time>
      </trkpt>
      <trkpt lat="48.00794" lon="7.11241">
        <ele>796.5</ele>
        <time>2011-07-03T10:37:25Z</time>
      </trkpt>
      <trkpt lat="48.00821" lon="7.11217">
        <ele>785</ele>
        <time>2011-07-03T10:37:30Z</time>
      </trkpt>
      <trkpt lat="48.00842" lon="7.1118">
        <ele>777.7</ele>
        <time>2011-07-03T10:37:35Z</time>
      </trkpt>
      <trkpt lat="48.00881" lon="7.1113">
        <ele>763.2</ele>
        <time>2011-07-03T10:37:43Z</time>
      </trkpt>
      <trkpt lat="48.00923" lon="7.11062">
        <ele>749.7</ele>
        <time>2011-07-03T10:37:51Z</time>
      </trkpt>
      <trkpt lat="48.00938" lon="7.11025">
        <ele>746.2</ele>
        <time>2011-07-03T10:37:55Z</time>
      </trkpt>
      <trkpt lat="48.00939" lon="7.10969">
        <ele>754.8</ele>
        <time>2011-07-03T10:38:03Z</time>
      </trkpt>
      <trkpt lat="48.00936" lon="7.10908">
        <ele>759.9</ele>
        <time>2011-07-03T10:38:15Z</time>
      </trkpt>
      <trkpt lat="48.00951" lon="7.10881">
        <ele>753.9</ele>
        <time>2011-07-03T10:38:21Z</time>
      </trkpt>
      <trkpt lat="48.00957" lon="7.1082">
        <ele>749.7</ele>
        <time>2011-07-03T10:38:33Z</time>
      </trkpt>
      <trkpt lat="48.00951" lon="7.1079">
        <ele>750.7</ele>
        <time>2011-07-03T10:38:39Z</time>
      </trkpt>
      <trkpt lat="48.00953" lon="7.10733">
        <ele>743.7</ele>
        <time>2011-07-03T10:39:22Z</time>
      </trkpt>
      <trkpt lat="48.00943" lon="7.10667">
        <ele>737.3</ele>
        <time>2011-07-03T10:39:35Z</time>
      </trkpt>
      <trkpt lat="48.00932" lon="7.1064">
        <ele>736.3</ele>
        <time>2011-07-03T10:39:43Z</time>
      </trkpt>
      <trkpt lat="48.00922" lon="7.10587">
        <ele>727.5</ele>
        <time>2011-07-03T10:39:55Z</time>
      </trkpt>
      <trkpt lat="48.00889" lon="7.10502">
        <ele>716.3</ele>
        <time>2011-07-03T10:40:03Z</time>
      </trkpt>
      <trkpt lat="48.00832" lon="7.10379">
        <ele>711.3</ele>
        <time>2011-07-03T10:40:11Z</time>
      </trkpt>
      <trkpt lat="48.00807" lon="7.10301">
        <ele>703.4</ele>
        <time>2011-07-03T10:40:15Z</time>
      </trkpt>
      <trkpt lat="48.00792" lon="7.10267">
        <ele>700.4</ele>
        <time>2011-07-03T10:40:17Z</time>
      </trkpt>
      <trkpt lat="48.00765" lon="7.10218">
        <ele>693.6</ele>
        <time>2011-07-03T10:40:21Z</time>
      </trkpt>
      <trkpt lat="48.0074" lon="7.10188">
        <ele>688.8</ele>
        <time>2011-07-03T10:40:25Z</time>
      </trkpt>
      <trkpt lat="48.00686" lon="7.1019">
        <ele>696.1</ele>
        <time>2011-07-03T10:40:36Z</time>
      </trkpt>
      <trkpt lat="48.00642" lon="7.10171">
        <ele>693.9</ele>
        <time>2011-07-03T10:40:47Z</time>
      </trkpt>
      <trkpt lat="48.00599" lon="7.10168">
        <ele>696.8</ele>
        <time>2011-07-03T10:41:00Z</time>
      </trkpt>
      <trkpt lat="48.00557" lon="7.10176">
        <ele>702.9</ele>
        <time>2011-07-03T10:41:16Z</time>
      </trkpt>
      <trkpt lat="48.00515" lon="7.10151">
        <ele>701.3</ele>
        <time>2011-07-03T10:41:38Z</time>
      </trkpt>
      <trkpt lat="48.00478" lon="7.10136">
        <ele>703</ele>
        <time>2011-07-03T10:41:56Z</time>
      </trkpt>
      <trkpt lat="48.00455" lon="7.10135">
        <ele>706</ele>
        <time>2011-07-03T10:42:05Z</time>
      </trkpt>
      <trkpt lat="48.00414" lon="7.10167">
        <ele>714.7</ele>
        <time>2011-07-03T10:42:25Z</time>
      </trkpt>
      <trkpt lat="48.00379" lon="7.10189">
        <ele>719.8</ele>
        <time>2011-07-03T10:42:50Z</time>
      </trkpt>
      <trkpt lat="48.00341" lon="7.10207">
        <ele>724.7</ele>
        <time>2011-07-03T10:43:07Z</time>
      </trkpt>
      <trkpt lat="48.00303" lon="7.1019">
        <ele>723.2</ele>
        <time>2011-07-03T10:43:28Z</time>
      </trkpt>
      <trkpt lat="48.00283" lon="7.10171">
        <ele>726.1</ele>
        <time>2011-07-03T10:43:34Z</time>
      </trkpt>
      <trkpt lat="48.00254" lon="7.1014">
        <ele>736.8</ele>
        <time>2011-07-03T10:43:53Z</time>
      </trkpt>
      <trkpt lat="48.00245" lon="7.10113">
        <ele>739.2</ele>
        <time>2011-07-03T10:43:57Z</time>
      </trkpt>
      <trkpt lat="48.00247" lon="7.1006">
        <ele>734.1</ele>
        <time>2011-07-03T10:44:48Z</time>
      </trkpt>
      <trkpt lat="48.00235" lon="7.09981">
        <ele>730.7</ele>
        <time>2011-07-03T10:45:12Z</time>
      </trkpt>
      <trkpt lat="48.00222" lon="7.09916">
        <ele>731.8</ele>
        <time>2011-07-03T10:45:21Z</time>
      </trkpt>
      <trkpt lat="48.00211" lon="7.09842">
        <ele>731.3</ele>
        <time>2011-07-03T10:45:29Z</time>
      </trkpt>
      <trkpt lat="48.00214" lon="7.09793">
        <ele>726.2</ele>
        <time>2011-07-03T10:45:34Z</time>
      </trkpt>
      <trkpt lat="48.00213" lon="7.09705">
        <ele>707.7</ele>
        <time>2011-07-03T10:45:42Z</time>
      </trkpt>
      <trkpt lat="48.00179" lon="7.09643">
        <ele>702.3</ele>
        <time>2011-07-03T10:45:50Z</time>
      </trkpt>
      <trkpt lat="48.00108" lon="7.09566">
        <ele>710.8</ele>
        <time>2011-07-03T10:46:08Z</time>
      </trkpt>
      <trkpt lat="48.00066" lon="7.09536">
        <ele>717.4</ele>
        <time>2011-07-03T10:46:22Z</time>
      </trkpt>
      <trkpt lat="48.00034" lon="7.09497">
        <ele>722.5</ele>
        <time>2011-07-03T10:46:36Z</time>
      </trkpt>
      <trkpt lat="48.00007" lon="7.09458">
        <ele>726.7</ele>
        <time>2011-07-03T10:46:48Z</time>
      </trkpt>
      <trkpt lat="47.99981" lon="7.09416">
        <ele>732.5</ele>
        <time>2011-07-03T10:47:02Z</time>
      </trkpt>
      <trkpt lat="47.99963" lon="7.09399">
        <ele>736.6</ele>
        <time>2011-07-03T10:47:10Z</time>
      </trkpt>
      <trkpt lat="47.99941" lon="7.09352">
        <ele>742.7</ele>
        <time>2011-07-03T10:47:30Z</time>
      </trkpt>
      <trkpt lat="47.9991" lon="7.09301">
        <ele>755.5</ele>
        <time>2011-07-03T10:47:54Z</time>
      </trkpt>
      <trkpt lat="47.9989" lon="7.09251">
        <ele>772.7</ele>
        <time>2011-07-03T10:48:18Z</time>
      </trkpt>
      <trkpt lat="47.99877" lon="7.092">
        <ele>789.3</ele>
        <time>2011-07-03T10:48:42Z</time>
      </trkpt>
      <trkpt lat="47.99887" lon="7.09138">
        <ele>802.5</ele>
        <time>2011-07-03T10:49:04Z</time>
      </trkpt>
      <trkpt lat="47.99902" lon="7.09084">
        <ele>811</ele>
        <time>2011-07-03T10:49:30Z</time>
      </trkpt>
      <trkpt lat="47.99923" lon="7.09041">
        <ele>816.9</ele>
        <time>2011-07-03T10:49:54Z</time>
      </trkpt>
      <trkpt lat="47.99954" lon="7.08996">
        <ele>819.8</ele>
        <time>2011-07-03T10:50:37Z</time>
      </trkpt>
      <trkpt lat="47.99985" lon="7.0896">
        <ele>822.8</ele>
        <time>2011-07-03T10:50:57Z</time>
      </trkpt>
      <trkpt lat="48.0004" lon="7.08882">
        <ele>830.1</ele>
        <time>2011-07-03T10:51:37Z</time>
      </trkpt>
      <trkpt lat="48.00077" lon="7.08871">
        <ele>826.5</ele>
        <time>2011-07-03T10:52:01Z</time>
      </trkpt>
      <trkpt lat="48.00099" lon="7.08877">
        <ele>824</ele>
        <time>2011-07-03T10:52:16Z</time>
      </trkpt>
      <trkpt lat="48.00134" lon="7.08894">
        <ele>818.4</ele>
        <time>2011-07-03T10:52:34Z</time>
      </trkpt>
      <trkpt lat="48.00178" lon="7.08904">
        <ele>810.7</ele>
        <time>2011-07-03T10:52:44Z</time>
      </trkpt>
      <trkpt lat="48.00211" lon="7.08924">
        <ele>805.2</ele>
        <time>2011-07-03T11:00:18Z</time>
      </trkpt>
      <trkpt lat="48.00261" lon="7.08942">
        <ele>800</ele>
        <time>2011-07-03T11:00:26Z</time>
      </trkpt>
      <trkpt lat="48.0031" lon="7.08941">
        <ele>796.7</ele>
        <time>2011-07-03T11:00:35Z</time>
      </trkpt>
      <trkpt lat="48.00333" lon="7.08938">
        <ele>796.5</ele>
        <time>2011-07-03T11:00:39Z</time>
      </trkpt>
      <trkpt lat="48.00379" lon="7.08938">
        <ele>795.2</ele>
        <time>2011-07-03T11:00:49Z</time>
      </trkpt>
      <trkpt lat="48.00423" lon="7.08947">
        <ele>789.2</ele>
        <time>2011-07-03T11:01:01Z</time>
      </trkpt>
      <trkpt lat="48.00467" lon="7.08968">
        <ele>781.1</ele>
        <time>2011-07-03T11:01:12Z</time>
      </trkpt>
      <trkpt lat="48.0051" lon="7.08946">
        <ele>778.4</ele>
        <time>2011-07-03T11:01:25Z</time>
      </trkpt>
      <trkpt lat="48.00528" lon="7.08914">
        <ele>777.1</ele>
        <time>2011-07-03T11:01:31Z</time>
      </trkpt>
      <trkpt lat="48.00558" lon="7.08912">
        <ele>775.9</ele>
        <time>2011-07-03T11:01:36Z</time>
      </trkpt>
      <trkpt lat="48.00652" lon="7.08943">
        <ele>775.8</ele>
        <time>2011-07-03T11:01:54Z</time>
      </trkpt>
      <trkpt lat="48.00679" lon="7.08961">
        <ele>770.8</ele>
        <time>2011-07-03T11:01:59Z</time>
      </trkpt>
      <trkpt lat="48.00731" lon="7.0898">
        <ele>765.6</ele>
        <time>2011-07-03T11:02:06Z</time>
      </trkpt>
      <trkpt lat="48.00775" lon="7.09019">
        <ele>758.8</ele>
        <time>2011-07-03T11:02:12Z</time>
      </trkpt>
      <trkpt lat="48.00801" lon="7.0907">
        <ele>744.1</ele>
        <time>2011-07-03T11:02:20Z</time>
      </trkpt>
      <trkpt lat="48.00828" lon="7.09128">
        <ele>727.9</ele>
        <time>2011-07-03T11:02:28Z</time>
      </trkpt>
      <trkpt lat="48.00854" lon="7.09178">
        <ele>715.3</ele>
        <time>2011-07-03T11:02:36Z</time>
      </trkpt>
      <trkpt lat="48.00884" lon="7.09213">
        <ele>706.6</ele>
        <time>2011-07-03T11:03:28Z</time>
      </trkpt>
      <trkpt lat="48.00921" lon="7.09234">
        <ele>699.6</ele>
        <time>2011-07-03T11:03:36Z</time>
      </trkpt>
      <trkpt lat="48.00971" lon="7.0922">
        <ele>705</ele>
        <time>2011-07-03T11:03:44Z</time>
      </trkpt>
      <trkpt lat="48.00993" lon="7.09195">
        <ele>711.7</ele>
        <time>2011-07-03T11:03:48Z</time>
      </trkpt>
      <trkpt lat="48.0104" lon="7.09182">
        <ele>711.3</ele>
        <time>2011-07-03T11:03:54Z</time>
      </trkpt>
      <trkpt lat="48.01057" lon="7.09198">
        <ele>707</ele>
        <time>2011-07-03T11:04:12Z</time>
      </trkpt>
      <trkpt lat="48.01086" lon="7.09238">
        <ele>696.3</ele>
        <time>2011-07-03T11:04:26Z</time>
      </trkpt>
      <trkpt lat="48.01123" lon="7.09261">
        <ele>690.5</ele>
        <time>2011-07-03T11:04:34Z</time>
      </trkpt>
      <trkpt lat="48.01163" lon="7.0928">
        <ele>683.6</ele>
        <time>2011-07-03T11:04:42Z</time>
      </trkpt>
      <trkpt lat="48.01217" lon="7.09313">
        <ele>670.5</ele>
        <time>2011-07-03T11:04:50Z</time>
      </trkpt>
      <trkpt lat="48.01243" lon="7.09317">
        <ele>662.5</ele>
        <time>2011-07-03T11:04:56Z</time>
      </trkpt>
      <trkpt lat="48.01278" lon="7.09286">
        <ele>664.9</ele>
        <time>2011-07-03T11:05:10Z</time>
      </trkpt>
      <trkpt lat="48.01313" lon="7.09242">
        <ele>663.2</ele>
        <time>2011-07-03T11:05:20Z</time>
      </trkpt>
      <trkpt lat="48.01354" lon="7.09213">
        <ele>657.4</ele>
        <time>2011-07-03T11:05:28Z</time>
      </trkpt>
      <trkpt lat="48.01397" lon="7.09202">
        <ele>648.1</ele>
        <time>2011-07-03T11:05:36Z</time>
      </trkpt>
      <trkpt lat="48.01425" lon="7.09182">
        <ele>641.4</ele>
        <time>2011-07-03T11:05:40Z</time>
      </trkpt>
      <trkpt lat="48.01461" lon="7.09124">
        <ele>633</ele>
        <time>2011-07-03T11:05:50Z</time>
      </trkpt>
      <trkpt lat="48.0147" lon="7.09069">
        <ele>633.7</ele>
        <time>2011-07-03T11:06:00Z</time>
      </trkpt>
      <trkpt lat="48.01457" lon="7.08997">
        <ele>635.6</ele>
        <time>2011-07-03T11:06:14Z</time>
      </trkpt>
      <trkpt lat="48.01443" lon="7.08968">
        <ele>636.1</ele>
        <time>2011-07-03T11:06:22Z</time>
      </trkpt>
      <trkpt lat="48.01416" lon="7.08925">
        <ele>630.3</ele>
        <time>2011-07-03T11:06:40Z</time>
      </trkpt>
      <trkpt lat="48.01411" lon="7.08898">
        <ele>626.4</ele>
        <time>2011-07-03T11:06:52Z</time>
      </trkpt>
      <trkpt lat="48.01389" lon="7.08849">
        <ele>620.2</ele>
        <time>2011-07-03T11:07:04Z</time>
      </trkpt>
      <trkpt lat="48.01348" lon="7.08812">
        <ele>622.5</ele>
        <time>2011-07-03T11:07:12Z</time>
      </trkpt>
      <trkpt lat="48.01345" lon="7.08748">
        <ele>615.4</ele>
        <time>2011-07-03T11:07:20Z</time>
      </trkpt>
      <trkpt lat="48.01348" lon="7.08675">
        <ele>601</ele>
        <time>2011-07-03T11:07:28Z</time>
      </trkpt>
      <trkpt lat="48.01316" lon="7.08627">
        <ele>597.3</ele>
        <time>2011-07-03T11:07:38Z</time>
      </trkpt>
      <trkpt lat="48.01273" lon="7.08594">
        <ele>603</ele>
        <time>2011-07-03T11:07:52Z</time>
      </trkpt>
      <trkpt lat="48.01243" lon="7.08553">
        <ele>603.9</ele>
        <time>2011-07-03T11:08:10Z</time>
      </trkpt>
      <trkpt lat="48.01211" lon="7.08526">
        <ele>608.8</ele>
        <time>2011-07-03T11:08:34Z</time>
      </trkpt>
      <trkpt lat="48.01178" lon="7.08486">
        <ele>614.1</ele>
        <time>2011-07-03T11:08:52Z</time>
      </trkpt>
      <trkpt lat="48.01151" lon="7.08441">
        <ele>617.9</ele>
        <time>2011-07-03T11:09:12Z</time>
      </trkpt>
      <trkpt lat="48.01128" lon="7.08386">
        <ele>622.7</ele>
        <time>2011-07-03T11:09:30Z</time>
      </trkpt>
      <trkpt lat="48.01119" lon="7.08311">
        <ele>632.3</ele>
        <time>2011-07-03T11:09:40Z</time>
      </trkpt>
      <trkpt lat="48.01122" lon="7.0826">
        <ele>634.1</ele>
        <time>2011-07-03T11:09:44Z</time>
      </trkpt>
      <trkpt lat="48.01131" lon="7.08212">
        <ele>632.7</ele>
        <time>2011-07-03T11:09:48Z</time>
      </trkpt>
      <trkpt lat="48.01156" lon="7.08197">
        <ele>626.3</ele>
        <time>2011-07-03T11:09:52Z</time>
      </trkpt>
      <trkpt lat="48.01188" lon="7.08202">
        <ele>619.9</ele>
        <time>2011-07-03T11:09:56Z</time>
      </trkpt>
      <trkpt lat="48.01215" lon="7.082">
        <ele>614.3</ele>
        <time>2011-07-03T11:10:00Z</time>
      </trkpt>
      <trkpt lat="48.01244" lon="7.08162">
        <ele>605.5</ele>
        <time>2011-07-03T11:10:06Z</time>
      </trkpt>
      <trkpt lat="48.01291" lon="7.08138">
        <ele>592.3</ele>
        <time>2011-07-03T11:10:12Z</time>
      </trkpt>
      <trkpt lat="48.0134" lon="7.08177">
        <ele>586</ele>
        <time>2011-07-03T11:10:20Z</time>
      </trkpt>
      <trkpt lat="48.01397" lon="7.082">
        <ele>580.2</ele>
        <time>2011-07-03T11:10:28Z</time>
      </trkpt>
      <trkpt lat="48.01452" lon="7.08218">
        <ele>580.7</ele>
        <time>2011-07-03T11:10:34Z</time>
      </trkpt>
      <trkpt lat="48.015" lon="7.08245">
        <ele>582.3</ele>
        <time>2011-07-03T11:10:40Z</time>
      </trkpt>
      <trkpt lat="48.01498" lon="7.08305">
        <ele>591.8</ele>
        <time>2011-07-03T11:10:50Z</time>
      </trkpt>
      <trkpt lat="48.01453" lon="7.08325">
        <ele>593.3</ele>
        <time>2011-07-03T11:11:04Z</time>
      </trkpt>
      <trkpt lat="48.01432" lon="7.08329">
        <ele>595.7</ele>
        <time>2011-07-03T11:11:10Z</time>
      </trkpt>
      <trkpt lat="48.01392" lon="7.08327">
        <ele>599.6</ele>
        <time>2011-07-03T11:11:24Z</time>
      </trkpt>
      <trkpt lat="48.01352" lon="7.08307">
        <ele>601.5</ele>
        <time>2011-07-03T11:11:36Z</time>
      </trkpt>
      <trkpt lat="48.01331" lon="7.08255">
        <ele>599</ele>
        <time>2011-07-03T11:11:44Z</time>
      </trkpt>
      <trkpt lat="48.01311" lon="7.08251">
        <ele>602.4</ele>
        <time>2011-07-03T11:11:48Z</time>
      </trkpt>
      <trkpt lat="48.01276" lon="7.08276">
        <ele>609.7</ele>
        <time>2011-07-03T11:11:56Z</time>
      </trkpt>
      <trkpt lat="48.01258" lon="7.08349">
        <ele>609.1</ele>
        <time>2011-07-03T11:12:04Z</time>
      </trkpt>
      <trkpt lat="48.01262" lon="7.08413">
        <ele>603</ele>
        <time>2011-07-03T11:12:16Z</time>
      </trkpt>
      <trkpt lat="48.01283" lon="7.08461">
        <ele>595.8</ele>
        <time>2011-07-03T11:12:46Z</time>
      </trkpt>
      <trkpt lat="48.013" lon="7.08515">
        <ele>590.1</ele>
        <time>2011-07-03T11:13:12Z</time>
      </trkpt>
      <trkpt lat="48.01323" lon="7.08564">
        <ele>587.1</ele>
        <time>2011-07-03T11:13:46Z</time>
      </trkpt>
      <trkpt lat="48.01367" lon="7.08663">
        <ele>593.9</ele>
        <time>2011-07-03T11:14:40Z</time>
      </trkpt>
      <trkpt lat="48.01382" lon="7.08727">
        <ele>605.6</ele>
        <time>2011-07-03T11:14:54Z</time>
      </trkpt>
      <trkpt lat="48.01393" lon="7.08758">
        <ele>608.8</ele>
        <time>2011-07-03T11:15:00Z</time>
      </trkpt>
      <trkpt lat="48.01435" lon="7.08762">
        <ele>602.5</ele>
        <time>2011-07-03T11:15:14Z</time>
      </trkpt>
      <trkpt lat="48.01473" lon="7.08738">
        <ele>589.8</ele>
        <time>2011-07-03T11:15:24Z</time>
      </trkpt>
      <trkpt lat="48.01526" lon="7.08735">
        <ele>576.1</ele>
        <time>2011-07-03T11:15:34Z</time>
      </trkpt>
      <trkpt lat="48.01573" lon="7.08728">
        <ele>564</ele>
        <time>2011-07-03T11:15:42Z</time>
      </trkpt>
      <trkpt lat="48.01625" lon="7.08737">
        <ele>557</ele>
        <time>2011-07-03T11:15:50Z</time>
      </trkpt>
      <trkpt lat="48.01668" lon="7.08767">
        <ele>563</ele>
        <time>2011-07-03T11:15:58Z</time>
      </trkpt>
      <trkpt lat="48.01701" lon="7.08826">
        <ele>577.4</ele>
        <time>2011-07-03T11:16:06Z</time>
      </trkpt>
      <trkpt lat="48.01719" lon="7.08861">
        <ele>581.5</ele>
        <time>2011-07-03T11:16:10Z</time>
      </trkpt>
      <trkpt lat="48.01747" lon="7.08938">
        <ele>580.1</ele>
        <time>2011-07-03T11:16:18Z</time>
      </trkpt>
      <trkpt lat="48.01755" lon="7.08969">
        <ele>579.6</ele>
        <time>2011-07-03T11:16:22Z</time>
      </trkpt>
      <trkpt lat="48.01736" lon="7.09003">
        <ele>589.8</ele>
        <time>2011-07-03T11:16:46Z</time>
      </trkpt>
      <trkpt lat="48.017" lon="7.08983">
        <ele>601.9</ele>
        <time>2011-07-03T11:17:06Z</time>
      </trkpt>
      <trkpt lat="48.0168" lon="7.08997">
        <ele>609.8</ele>
        <time>2011-07-03T11:17:14Z</time>
      </trkpt>
      <trkpt lat="48.01649" lon="7.09048">
        <ele>621.1</ele>
        <time>2011-07-03T11:17:28Z</time>
      </trkpt>
      <trkpt lat="48.01627" lon="7.09115">
        <ele>624.2</ele>
        <time>2011-07-03T11:17:42Z</time>
      </trkpt>
      <trkpt lat="48.01587" lon="7.0912">
        <ele>627.9</ele>
        <time>2011-07-03T11:18:02Z</time>
      </trkpt>
      <trkpt lat="48.01569" lon="7.09095">
        <ele>630.6</ele>
        <time>2011-07-03T11:18:12Z</time>
      </trkpt>
      <trkpt lat="48.01495" lon="7.09057">
        <ele>634.1</ele>
        <time>2011-07-03T11:18:50Z</time>
      </trkpt>
      <trkpt lat="48.01469" lon="7.09102">
        <ele>633.2</ele>
        <time>2011-07-03T11:19:14Z</time>
      </trkpt>
      <trkpt lat="48.01467" lon="7.09137">
        <ele>633.1</ele>
        <time>2011-07-03T11:19:22Z</time>
      </trkpt>
      <trkpt lat="48.01468" lon="7.09218">
        <ele>634.5</ele>
        <time>2011-07-03T11:19:34Z</time>
      </trkpt>
      <trkpt lat="48.01491" lon="7.09276">
        <ele>631.1</ele>
        <time>2011-07-03T11:19:42Z</time>
      </trkpt>
      <trkpt lat="48.01552" lon="7.09395">
        <ele>616.6</ele>
        <time>2011-07-03T11:19:56Z</time>
      </trkpt>
      <trkpt lat="48.01589" lon="7.09426">
        <ele>607.8</ele>
        <time>2011-07-03T11:20:04Z</time>
      </trkpt>
      <trkpt lat="48.01605" lon="7.09442">
        <ele>604.1</ele>
        <time>2011-07-03T11:20:08Z</time>
      </trkpt>
      <trkpt lat="48.01649" lon="7.09492">
        <ele>595.1</ele>
        <time>2011-07-03T11:20:16Z</time>
      </trkpt>
      <trkpt lat="48.01672" lon="7.09512">
        <ele>591</ele>
        <time>2011-07-03T11:20:20Z</time>
      </trkpt>
      <trkpt lat="48.01706" lon="7.09548">
        <ele>586.5</ele>
        <time>2011-07-03T11:20:30Z</time>
      </trkpt>
      <trkpt lat="48.01719" lon="7.09574">
        <ele>584.8</ele>
        <time>2011-07-03T11:20:38Z</time>
      </trkpt>
      <trkpt lat="48.01689" lon="7.09614">
        <ele>589.2</ele>
        <time>2011-07-03T11:20:56Z</time>
      </trkpt>
      <trkpt lat="48.01704" lon="7.09686">
        <ele>585.5</ele>
        <time>2011-07-03T11:21:04Z</time>
      </trkpt>
      <trkpt lat="48.01721" lon="7.09757">
        <ele>579.8</ele>
        <time>2011-07-03T11:21:12Z</time>
      </trkpt>
      <trkpt lat="48.01743" lon="7.09786">
        <ele>578.7</ele>
        <time>2011-07-03T11:21:16Z</time>
      </trkpt>
      <trkpt lat="48.01767" lon="7.09809">
        <ele>578.9</ele>
        <time>2011-07-03T11:21:20Z</time>
      </trkpt>
      <trkpt lat="48.01787" lon="7.09845">
        <ele>578.4</ele>
        <time>2011-07-03T11:21:24Z</time>
      </trkpt>
      <trkpt lat="48.01814" lon="7.09879">
        <ele>575.4</ele>
        <time>2011-07-03T11:21:28Z</time>
      </trkpt>
      <trkpt lat="48.01851" lon="7.09913">
        <ele>570</ele>
        <time>2011-07-03T11:21:32Z</time>
      </trkpt>
      <trkpt lat="48.01882" lon="7.09928">
        <ele>566.1</ele>
        <time>2011-07-03T11:21:36Z</time>
      </trkpt>
      <trkpt lat="48.01937" lon="7.09936">
        <ele>546.3</ele>
        <time>2011-07-03T11:21:42Z</time>
      </trkpt>
      <trkpt lat="48.01976" lon="7.0993">
        <ele>532.9</ele>
        <time>2011-07-03T11:21:46Z</time>
      </trkpt>
      <trkpt lat="48.02013" lon="7.09881">
        <ele>521.4</ele>
        <time>2011-07-03T11:21:52Z</time>
      </trkpt>
      <trkpt lat="48.02028" lon="7.09821">
        <ele>518.9</ele>
        <time>2011-07-03T11:21:56Z</time>
      </trkpt>
      <trkpt lat="48.02041" lon="7.09827">
        <ele>513.5</ele>
        <time>2011-07-03T11:22:04Z</time>
      </trkpt>
      <trkpt lat="48.0205" lon="7.09922">
        <ele>505.7</ele>
        <time>2011-07-03T11:22:12Z</time>
      </trkpt>
      <trkpt lat="48.02076" lon="7.09973">
        <ele>495.8</ele>
        <time>2011-07-03T11:22:20Z</time>
      </trkpt>
      <trkpt lat="48.02086" lon="7.09916">
        <ele>493.4</ele>
        <time>2011-07-03T11:22:24Z</time>
      </trkpt>
      <trkpt lat="48.02108" lon="7.09817">
        <ele>488.3</ele>
        <time>2011-07-03T11:22:30Z</time>
      </trkpt>
      <trkpt lat="48.02122" lon="7.09745">
        <ele>482.6</ele>
        <time>2011-07-03T11:22:34Z</time>
      </trkpt>
      <trkpt lat="48.0214" lon="7.0967">
        <ele>475.5</ele>
        <time>2011-07-03T11:22:38Z</time>
      </trkpt>
      <trkpt lat="48.02159" lon="7.09598">
        <ele>467.8</ele>
        <time>2011-07-03T11:22:42Z</time>
      </trkpt>
      <trkpt lat="48.02161" lon="7.09534">
        <ele>464.3</ele>
        <time>2011-07-03T11:22:48Z</time>
      </trkpt>
      <trkpt lat="48.0218" lon="7.09562">
        <ele>461.3</ele>
        <time>2011-07-03T11:22:54Z</time>
      </trkpt>
      <trkpt lat="48.02192" lon="7.09608">
        <ele>459.8</ele>
        <time>2011-07-03T11:22:58Z</time>
      </trkpt>
      <trkpt lat="48.02208" lon="7.09685">
        <ele>456.2</ele>
        <time>2011-07-03T11:23:04Z</time>
      </trkpt>
      <trkpt lat="48.02227" lon="7.0974">
        <ele>452.6</ele>
        <time>2011-07-03T11:23:08Z</time>
      </trkpt>
      <trkpt lat="48.02258" lon="7.09793">
        <ele>446.6</ele>
        <time>2011-07-03T11:23:12Z</time>
      </trkpt>
      <trkpt lat="48.02334" lon="7.09906">
        <ele>437.1</ele>
        <time>2011-07-03T11:23:20Z</time>
      </trkpt>
      <trkpt lat="48.0235" lon="7.09937">
        <ele>435.8</ele>
        <time>2011-07-03T11:23:22Z</time>
      </trkpt>
      <trkpt lat="48.02392" lon="7.10039">
        <ele>430.7</ele>
        <time>2011-07-03T11:23:30Z</time>
      </trkpt>
      <trkpt lat="48.02456" lon="7.10028">
        <ele>429.5</ele>
        <time>2011-07-03T11:23:44Z</time>
      </trkpt>
    </trkseg>
  </trk>
</gpx>